<?xml version="1.0" encoding="UTF-8" standalone="no" ?>
<gpx xmlns="http://www.topografix.com/GPX/1/1" xmlns:xsi="http://www.w3.org/2001/XMLSchema-instance" xsi:schemaLocation="http://www.topografix.com/GPX/1/1 http://www.topografix.com/GPX/1/1/gpx.xsd" version="1.1" creator="VisuGPX - https://www.visugpx.com">
  <metadata>
    <name>19 février 18 Bruyères et Montberreau </name>
    <desc><![CDATA[File with points/tracks from Locus Map/3.29.2]]></desc>
  </metadata>
  <trk>
    <name><![CDATA[2018-02-19 13:46:26]]></name>
    <trkseg>
      <trkpt lat="49.53039" lon="3.65903">
        <ele>93.31</ele>
        <time>2018-02-19T12:46:27.000Z</time>
      </trkpt>
      <trkpt lat="49.53039" lon="3.65904">
        <ele>93.12</ele>
        <time>2018-02-19T12:46:40.000Z</time>
      </trkpt>
      <trkpt lat="49.53038" lon="3.65902">
        <ele>92.97</ele>
        <time>2018-02-19T12:46:50.000Z</time>
      </trkpt>
      <trkpt lat="49.53036" lon="3.65903">
        <ele>92.92</ele>
        <time>2018-02-19T12:47:00.000Z</time>
      </trkpt>
      <trkpt lat="49.5304" lon="3.65905">
        <ele>93.03</ele>
        <time>2018-02-19T12:47:10.000Z</time>
      </trkpt>
      <trkpt lat="49.53038" lon="3.65904">
        <ele>92.88</ele>
        <time>2018-02-19T12:47:20.000Z</time>
      </trkpt>
      <trkpt lat="49.5304" lon="3.65903">
        <ele>92.42</ele>
        <time>2018-02-19T12:47:30.000Z</time>
      </trkpt>
      <trkpt lat="49.53041" lon="3.65904">
        <ele>92</ele>
        <time>2018-02-19T12:47:40.000Z</time>
      </trkpt>
      <trkpt lat="49.5304" lon="3.65905">
        <ele>91.91</ele>
        <time>2018-02-19T12:47:50.000Z</time>
      </trkpt>
      <trkpt lat="49.53039" lon="3.65905">
        <ele>91.74</ele>
        <time>2018-02-19T12:48:09.000Z</time>
      </trkpt>
      <trkpt lat="49.53042" lon="3.65905">
        <ele>91.75</ele>
        <time>2018-02-19T12:48:19.000Z</time>
      </trkpt>
      <trkpt lat="49.53041" lon="3.65902">
        <ele>90.9</ele>
        <time>2018-02-19T12:48:29.000Z</time>
      </trkpt>
      <trkpt lat="49.53043" lon="3.659">
        <ele>90.68</ele>
        <time>2018-02-19T12:48:39.000Z</time>
      </trkpt>
      <trkpt lat="49.53044" lon="3.65901">
        <ele>90.47</ele>
        <time>2018-02-19T12:48:52.000Z</time>
      </trkpt>
      <trkpt lat="49.53045" lon="3.65901">
        <ele>90.21</ele>
        <time>2018-02-19T12:49:03.000Z</time>
      </trkpt>
      <trkpt lat="49.53045" lon="3.65903">
        <ele>90.08</ele>
        <time>2018-02-19T12:49:13.000Z</time>
      </trkpt>
      <trkpt lat="49.53044" lon="3.65904">
        <ele>90.01</ele>
        <time>2018-02-19T12:49:23.000Z</time>
      </trkpt>
      <trkpt lat="49.53044" lon="3.65906">
        <ele>89.77</ele>
        <time>2018-02-19T12:49:37.000Z</time>
      </trkpt>
      <trkpt lat="49.53044" lon="3.65907">
        <ele>89.29</ele>
        <time>2018-02-19T12:49:59.000Z</time>
      </trkpt>
      <trkpt lat="49.53044" lon="3.65908">
        <ele>89.19</ele>
        <time>2018-02-19T12:50:10.000Z</time>
      </trkpt>
      <trkpt lat="49.53043" lon="3.65907">
        <ele>88.56</ele>
        <time>2018-02-19T12:51:12.999Z</time>
      </trkpt>
      <trkpt lat="49.53042" lon="3.65906">
        <ele>88.59</ele>
        <time>2018-02-19T12:51:22.999Z</time>
      </trkpt>
      <trkpt lat="49.53041" lon="3.65906">
        <ele>88.6</ele>
        <time>2018-02-19T12:51:32.999Z</time>
      </trkpt>
      <trkpt lat="49.53041" lon="3.65908">
        <ele>88.48</ele>
        <time>2018-02-19T12:52:04.999Z</time>
      </trkpt>
      <trkpt lat="49.53042" lon="3.65909">
        <ele>88.08</ele>
        <time>2018-02-19T12:52:51.999Z</time>
      </trkpt>
      <trkpt lat="49.53042" lon="3.6591">
        <ele>88</ele>
        <time>2018-02-19T12:53:29.999Z</time>
      </trkpt>
      <trkpt lat="49.53043" lon="3.65909">
        <ele>87.95</ele>
        <time>2018-02-19T12:53:41.999Z</time>
      </trkpt>
      <trkpt lat="49.53042" lon="3.65911">
        <ele>87.94</ele>
        <time>2018-02-19T12:53:54.999Z</time>
      </trkpt>
      <trkpt lat="49.53029" lon="3.65919">
        <ele>86.36</ele>
        <time>2018-02-19T12:54:04.999Z</time>
      </trkpt>
      <trkpt lat="49.53024" lon="3.65926">
        <ele>85.43</ele>
        <time>2018-02-19T12:54:14.999Z</time>
      </trkpt>
      <trkpt lat="49.53026" lon="3.65925">
        <ele>85.15</ele>
        <time>2018-02-19T12:54:28.999Z</time>
      </trkpt>
      <trkpt lat="49.53025" lon="3.65926">
        <ele>85.02</ele>
        <time>2018-02-19T12:54:38.999Z</time>
      </trkpt>
      <trkpt lat="49.53026" lon="3.65927">
        <ele>85.03</ele>
        <time>2018-02-19T12:54:48.999Z</time>
      </trkpt>
      <trkpt lat="49.53026" lon="3.65928">
        <ele>85.12</ele>
        <time>2018-02-19T12:55:21.999Z</time>
      </trkpt>
      <trkpt lat="49.53027" lon="3.65927">
        <ele>85</ele>
        <time>2018-02-19T12:55:31.999Z</time>
      </trkpt>
      <trkpt lat="49.53027" lon="3.65926">
        <ele>84.85</ele>
        <time>2018-02-19T12:55:44.999Z</time>
      </trkpt>
      <trkpt lat="49.53027" lon="3.65925">
        <ele>85.75</ele>
        <time>2018-02-19T12:57:21.999Z</time>
      </trkpt>
      <trkpt lat="49.53026" lon="3.65927">
        <ele>85.98</ele>
        <time>2018-02-19T12:58:29.999Z</time>
      </trkpt>
      <trkpt lat="49.53026" lon="3.65928">
        <ele>86.88</ele>
        <time>2018-02-19T12:58:54.999Z</time>
      </trkpt>
      <trkpt lat="49.53032" lon="3.65938">
        <ele>88.2</ele>
        <time>2018-02-19T12:59:04.999Z</time>
      </trkpt>
      <trkpt lat="49.53041" lon="3.65951">
        <ele>87.82</ele>
        <time>2018-02-19T12:59:14.999Z</time>
      </trkpt>
      <trkpt lat="49.53048" lon="3.6596">
        <ele>86.64</ele>
        <time>2018-02-19T12:59:24.999Z</time>
      </trkpt>
      <trkpt lat="49.53058" lon="3.65965">
        <ele>85.71</ele>
        <time>2018-02-19T12:59:34.999Z</time>
      </trkpt>
      <trkpt lat="49.53071" lon="3.65969">
        <ele>85.28</ele>
        <time>2018-02-19T12:59:44.999Z</time>
      </trkpt>
      <trkpt lat="49.53083" lon="3.65969">
        <ele>85.03</ele>
        <time>2018-02-19T12:59:54.999Z</time>
      </trkpt>
      <trkpt lat="49.53094" lon="3.65968">
        <ele>85.01</ele>
        <time>2018-02-19T13:00:04.999Z</time>
      </trkpt>
      <trkpt lat="49.53107" lon="3.65968">
        <ele>85.16</ele>
        <time>2018-02-19T13:00:14.999Z</time>
      </trkpt>
      <trkpt lat="49.53117" lon="3.65966">
        <ele>85.32</ele>
        <time>2018-02-19T13:00:24.999Z</time>
      </trkpt>
      <trkpt lat="49.53129" lon="3.65963">
        <ele>85.46</ele>
        <time>2018-02-19T13:00:34.999Z</time>
      </trkpt>
      <trkpt lat="49.53143" lon="3.65961">
        <ele>85.24</ele>
        <time>2018-02-19T13:00:44.999Z</time>
      </trkpt>
      <trkpt lat="49.53156" lon="3.65961">
        <ele>84.76</ele>
        <time>2018-02-19T13:00:54.999Z</time>
      </trkpt>
      <trkpt lat="49.53169" lon="3.65957">
        <ele>84.57</ele>
        <time>2018-02-19T13:01:04.999Z</time>
      </trkpt>
      <trkpt lat="49.53179" lon="3.65958">
        <ele>84.99</ele>
        <time>2018-02-19T13:01:14.999Z</time>
      </trkpt>
      <trkpt lat="49.53193" lon="3.65959">
        <ele>86.68</ele>
        <time>2018-02-19T13:01:24.999Z</time>
      </trkpt>
      <trkpt lat="49.53203" lon="3.65963">
        <ele>87.87</ele>
        <time>2018-02-19T13:01:34.999Z</time>
      </trkpt>
      <trkpt lat="49.53201" lon="3.65971">
        <ele>87.76</ele>
        <time>2018-02-19T13:01:44.999Z</time>
      </trkpt>
      <trkpt lat="49.53187" lon="3.65979">
        <ele>87.18</ele>
        <time>2018-02-19T13:01:54.999Z</time>
      </trkpt>
      <trkpt lat="49.53178" lon="3.65998">
        <ele>88.04</ele>
        <time>2018-02-19T13:02:04.999Z</time>
      </trkpt>
      <trkpt lat="49.53169" lon="3.66009">
        <ele>89.92</ele>
        <time>2018-02-19T13:02:14.999Z</time>
      </trkpt>
      <trkpt lat="49.53159" lon="3.66021">
        <ele>91.48</ele>
        <time>2018-02-19T13:02:24.999Z</time>
      </trkpt>
      <trkpt lat="49.53156" lon="3.66035">
        <ele>92.3</ele>
        <time>2018-02-19T13:02:34.999Z</time>
      </trkpt>
      <trkpt lat="49.53159" lon="3.66042">
        <ele>92.93</ele>
        <time>2018-02-19T13:02:44.999Z</time>
      </trkpt>
      <trkpt lat="49.53143" lon="3.66053">
        <ele>94.31</ele>
        <time>2018-02-19T13:02:54.999Z</time>
      </trkpt>
      <trkpt lat="49.53135" lon="3.66064">
        <ele>95.31</ele>
        <time>2018-02-19T13:03:04.999Z</time>
      </trkpt>
      <trkpt lat="49.53128" lon="3.66068">
        <ele>95.76</ele>
        <time>2018-02-19T13:03:14.999Z</time>
      </trkpt>
      <trkpt lat="49.53121" lon="3.66075">
        <ele>95.29</ele>
        <time>2018-02-19T13:03:24.999Z</time>
      </trkpt>
      <trkpt lat="49.53116" lon="3.66089">
        <ele>93.91</ele>
        <time>2018-02-19T13:03:34.999Z</time>
      </trkpt>
      <trkpt lat="49.53112" lon="3.66096">
        <ele>93.26</ele>
        <time>2018-02-19T13:03:44.999Z</time>
      </trkpt>
      <trkpt lat="49.53102" lon="3.66117">
        <ele>92.95</ele>
        <time>2018-02-19T13:03:54.999Z</time>
      </trkpt>
      <trkpt lat="49.53094" lon="3.66133">
        <ele>93.2</ele>
        <time>2018-02-19T13:04:04.999Z</time>
      </trkpt>
      <trkpt lat="49.53088" lon="3.6615">
        <ele>93.63</ele>
        <time>2018-02-19T13:04:14.999Z</time>
      </trkpt>
      <trkpt lat="49.53078" lon="3.66163">
        <ele>93.5</ele>
        <time>2018-02-19T13:04:24.999Z</time>
      </trkpt>
      <trkpt lat="49.53072" lon="3.66172">
        <ele>93.33</ele>
        <time>2018-02-19T13:04:34.999Z</time>
      </trkpt>
      <trkpt lat="49.53067" lon="3.66183">
        <ele>93.29</ele>
        <time>2018-02-19T13:04:44.999Z</time>
      </trkpt>
      <trkpt lat="49.53059" lon="3.66202">
        <ele>93.09</ele>
        <time>2018-02-19T13:04:54.999Z</time>
      </trkpt>
      <trkpt lat="49.53052" lon="3.66217">
        <ele>93.04</ele>
        <time>2018-02-19T13:05:04.999Z</time>
      </trkpt>
      <trkpt lat="49.53044" lon="3.66227">
        <ele>93.4</ele>
        <time>2018-02-19T13:05:14.999Z</time>
      </trkpt>
      <trkpt lat="49.53031" lon="3.66232">
        <ele>94.02</ele>
        <time>2018-02-19T13:05:24.999Z</time>
      </trkpt>
      <trkpt lat="49.53017" lon="3.66233">
        <ele>94.44</ele>
        <time>2018-02-19T13:05:34.999Z</time>
      </trkpt>
      <trkpt lat="49.5301" lon="3.66235">
        <ele>94.86</ele>
        <time>2018-02-19T13:05:44.999Z</time>
      </trkpt>
      <trkpt lat="49.52992" lon="3.66236">
        <ele>94.89</ele>
        <time>2018-02-19T13:05:54.999Z</time>
      </trkpt>
      <trkpt lat="49.52977" lon="3.66237">
        <ele>94.81</ele>
        <time>2018-02-19T13:06:04.999Z</time>
      </trkpt>
      <trkpt lat="49.52962" lon="3.66237">
        <ele>94.63</ele>
        <time>2018-02-19T13:06:14.999Z</time>
      </trkpt>
      <trkpt lat="49.52953" lon="3.66237">
        <ele>94.04</ele>
        <time>2018-02-19T13:06:24.999Z</time>
      </trkpt>
      <trkpt lat="49.52941" lon="3.66232">
        <ele>93.7</ele>
        <time>2018-02-19T13:06:34.999Z</time>
      </trkpt>
      <trkpt lat="49.52931" lon="3.66232">
        <ele>93.64</ele>
        <time>2018-02-19T13:06:44.999Z</time>
      </trkpt>
      <trkpt lat="49.5292" lon="3.66233">
        <ele>93.8</ele>
        <time>2018-02-19T13:06:54.999Z</time>
      </trkpt>
      <trkpt lat="49.52911" lon="3.66235">
        <ele>93.98</ele>
        <time>2018-02-19T13:07:04.999Z</time>
      </trkpt>
      <trkpt lat="49.52896" lon="3.66237">
        <ele>94.01</ele>
        <time>2018-02-19T13:07:14.999Z</time>
      </trkpt>
      <trkpt lat="49.52884" lon="3.66241">
        <ele>94.1</ele>
        <time>2018-02-19T13:07:24.999Z</time>
      </trkpt>
      <trkpt lat="49.5287" lon="3.66245">
        <ele>93.84</ele>
        <time>2018-02-19T13:07:34.999Z</time>
      </trkpt>
      <trkpt lat="49.52857" lon="3.6625">
        <ele>93.64</ele>
        <time>2018-02-19T13:07:44.999Z</time>
      </trkpt>
      <trkpt lat="49.52848" lon="3.66254">
        <ele>93.76</ele>
        <time>2018-02-19T13:07:54.999Z</time>
      </trkpt>
      <trkpt lat="49.5284" lon="3.6626">
        <ele>94.01</ele>
        <time>2018-02-19T13:08:04.999Z</time>
      </trkpt>
      <trkpt lat="49.5283" lon="3.66265">
        <ele>94.43</ele>
        <time>2018-02-19T13:08:14.999Z</time>
      </trkpt>
      <trkpt lat="49.52815" lon="3.66271">
        <ele>94.65</ele>
        <time>2018-02-19T13:08:24.999Z</time>
      </trkpt>
      <trkpt lat="49.52801" lon="3.66281">
        <ele>95</ele>
        <time>2018-02-19T13:08:34.999Z</time>
      </trkpt>
      <trkpt lat="49.52792" lon="3.663">
        <ele>95.26</ele>
        <time>2018-02-19T13:08:44.999Z</time>
      </trkpt>
      <trkpt lat="49.52786" lon="3.66319">
        <ele>95.14</ele>
        <time>2018-02-19T13:08:54.999Z</time>
      </trkpt>
      <trkpt lat="49.52777" lon="3.66337">
        <ele>94.81</ele>
        <time>2018-02-19T13:09:04.999Z</time>
      </trkpt>
      <trkpt lat="49.52771" lon="3.66352">
        <ele>94.32</ele>
        <time>2018-02-19T13:09:14.999Z</time>
      </trkpt>
      <trkpt lat="49.52767" lon="3.66366">
        <ele>93.67</ele>
        <time>2018-02-19T13:09:24.999Z</time>
      </trkpt>
      <trkpt lat="49.52763" lon="3.66384">
        <ele>92.95</ele>
        <time>2018-02-19T13:09:34.999Z</time>
      </trkpt>
      <trkpt lat="49.52761" lon="3.66403">
        <ele>92.31</ele>
        <time>2018-02-19T13:09:44.999Z</time>
      </trkpt>
      <trkpt lat="49.52756" lon="3.66422">
        <ele>91.75</ele>
        <time>2018-02-19T13:09:54.999Z</time>
      </trkpt>
      <trkpt lat="49.52751" lon="3.66438">
        <ele>91.01</ele>
        <time>2018-02-19T13:10:04.999Z</time>
      </trkpt>
      <trkpt lat="49.52745" lon="3.66455">
        <ele>90.24</ele>
        <time>2018-02-19T13:10:14.999Z</time>
      </trkpt>
      <trkpt lat="49.52739" lon="3.66469">
        <ele>89.63</ele>
        <time>2018-02-19T13:10:24.999Z</time>
      </trkpt>
      <trkpt lat="49.52733" lon="3.66478">
        <ele>88.97</ele>
        <time>2018-02-19T13:10:34.999Z</time>
      </trkpt>
      <trkpt lat="49.52723" lon="3.66488">
        <ele>88.6</ele>
        <time>2018-02-19T13:10:44.999Z</time>
      </trkpt>
      <trkpt lat="49.52712" lon="3.66499">
        <ele>88.63</ele>
        <time>2018-02-19T13:10:54.999Z</time>
      </trkpt>
      <trkpt lat="49.52704" lon="3.66509">
        <ele>89.26</ele>
        <time>2018-02-19T13:11:04.999Z</time>
      </trkpt>
      <trkpt lat="49.52694" lon="3.6652">
        <ele>89.64</ele>
        <time>2018-02-19T13:11:14.999Z</time>
      </trkpt>
      <trkpt lat="49.52683" lon="3.66522">
        <ele>89.17</ele>
        <time>2018-02-19T13:11:24.999Z</time>
      </trkpt>
      <trkpt lat="49.52666" lon="3.66509">
        <ele>89.13</ele>
        <time>2018-02-19T13:11:34.999Z</time>
      </trkpt>
      <trkpt lat="49.52655" lon="3.66498">
        <ele>89.48</ele>
        <time>2018-02-19T13:11:44.999Z</time>
      </trkpt>
      <trkpt lat="49.52644" lon="3.66486">
        <ele>89.83</ele>
        <time>2018-02-19T13:11:54.999Z</time>
      </trkpt>
      <trkpt lat="49.52634" lon="3.66475">
        <ele>90.56</ele>
        <time>2018-02-19T13:12:04.000Z</time>
      </trkpt>
      <trkpt lat="49.52624" lon="3.66484">
        <ele>91.55</ele>
        <time>2018-02-19T13:12:14.000Z</time>
      </trkpt>
      <trkpt lat="49.52615" lon="3.66504">
        <ele>92.15</ele>
        <time>2018-02-19T13:12:24.000Z</time>
      </trkpt>
      <trkpt lat="49.52607" lon="3.6652">
        <ele>92.51</ele>
        <time>2018-02-19T13:12:34.000Z</time>
      </trkpt>
      <trkpt lat="49.526" lon="3.66535">
        <ele>92.71</ele>
        <time>2018-02-19T13:12:44.000Z</time>
      </trkpt>
      <trkpt lat="49.52591" lon="3.6655">
        <ele>92.93</ele>
        <time>2018-02-19T13:12:54.000Z</time>
      </trkpt>
      <trkpt lat="49.52582" lon="3.66566">
        <ele>93.49</ele>
        <time>2018-02-19T13:13:04.000Z</time>
      </trkpt>
      <trkpt lat="49.52574" lon="3.66582">
        <ele>93.96</ele>
        <time>2018-02-19T13:13:14.000Z</time>
      </trkpt>
      <trkpt lat="49.52568" lon="3.66601">
        <ele>94.39</ele>
        <time>2018-02-19T13:13:24.000Z</time>
      </trkpt>
      <trkpt lat="49.52561" lon="3.66614">
        <ele>94.75</ele>
        <time>2018-02-19T13:13:34.000Z</time>
      </trkpt>
      <trkpt lat="49.52553" lon="3.66625">
        <ele>94.9</ele>
        <time>2018-02-19T13:13:44.000Z</time>
      </trkpt>
      <trkpt lat="49.52545" lon="3.66637">
        <ele>94.85</ele>
        <time>2018-02-19T13:13:54.000Z</time>
      </trkpt>
      <trkpt lat="49.52544" lon="3.66638">
        <ele>94.82</ele>
        <time>2018-02-19T13:14:04.000Z</time>
      </trkpt>
      <trkpt lat="49.52543" lon="3.6664">
        <ele>94.63</ele>
        <time>2018-02-19T13:14:52.000Z</time>
      </trkpt>
      <trkpt lat="49.5254" lon="3.66643">
        <ele>94.81</ele>
        <time>2018-02-19T13:15:02.000Z</time>
      </trkpt>
      <trkpt lat="49.52539" lon="3.66643">
        <ele>94.91</ele>
        <time>2018-02-19T13:15:12.000Z</time>
      </trkpt>
      <trkpt lat="49.52538" lon="3.66645">
        <ele>94.97</ele>
        <time>2018-02-19T13:15:22.000Z</time>
      </trkpt>
      <trkpt lat="49.52537" lon="3.66649">
        <ele>95.32</ele>
        <time>2018-02-19T13:15:32.000Z</time>
      </trkpt>
      <trkpt lat="49.52537" lon="3.66653">
        <ele>95.56</ele>
        <time>2018-02-19T13:15:42.000Z</time>
      </trkpt>
      <trkpt lat="49.52538" lon="3.66653">
        <ele>95.44</ele>
        <time>2018-02-19T13:16:21.000Z</time>
      </trkpt>
      <trkpt lat="49.52536" lon="3.66665">
        <ele>95.02</ele>
        <time>2018-02-19T13:16:31.000Z</time>
      </trkpt>
      <trkpt lat="49.52525" lon="3.66676">
        <ele>94.8</ele>
        <time>2018-02-19T13:16:41.000Z</time>
      </trkpt>
      <trkpt lat="49.52521" lon="3.66681">
        <ele>94.64</ele>
        <time>2018-02-19T13:16:51.000Z</time>
      </trkpt>
      <trkpt lat="49.52521" lon="3.66682">
        <ele>94.4</ele>
        <time>2018-02-19T13:17:01.000Z</time>
      </trkpt>
      <trkpt lat="49.52521" lon="3.66683">
        <ele>94.3</ele>
        <time>2018-02-19T13:17:16.000Z</time>
      </trkpt>
      <trkpt lat="49.52515" lon="3.66692">
        <ele>93.76</ele>
        <time>2018-02-19T13:17:26.000Z</time>
      </trkpt>
      <trkpt lat="49.5251" lon="3.66703">
        <ele>93.5</ele>
        <time>2018-02-19T13:17:36.000Z</time>
      </trkpt>
      <trkpt lat="49.52503" lon="3.66718">
        <ele>93.39</ele>
        <time>2018-02-19T13:17:46.000Z</time>
      </trkpt>
      <trkpt lat="49.52496" lon="3.66733">
        <ele>93.34</ele>
        <time>2018-02-19T13:17:56.000Z</time>
      </trkpt>
      <trkpt lat="49.52486" lon="3.66742">
        <ele>93.52</ele>
        <time>2018-02-19T13:18:06.000Z</time>
      </trkpt>
      <trkpt lat="49.52473" lon="3.66753">
        <ele>93.63</ele>
        <time>2018-02-19T13:18:16.000Z</time>
      </trkpt>
      <trkpt lat="49.52462" lon="3.66766">
        <ele>93.46</ele>
        <time>2018-02-19T13:18:26.000Z</time>
      </trkpt>
      <trkpt lat="49.52449" lon="3.66772">
        <ele>93.34</ele>
        <time>2018-02-19T13:18:36.000Z</time>
      </trkpt>
      <trkpt lat="49.52435" lon="3.66772">
        <ele>93.38</ele>
        <time>2018-02-19T13:18:46.000Z</time>
      </trkpt>
      <trkpt lat="49.5242" lon="3.66771">
        <ele>93.2</ele>
        <time>2018-02-19T13:18:56.000Z</time>
      </trkpt>
      <trkpt lat="49.52406" lon="3.66775">
        <ele>92.84</ele>
        <time>2018-02-19T13:19:06.000Z</time>
      </trkpt>
      <trkpt lat="49.52394" lon="3.66779">
        <ele>92.55</ele>
        <time>2018-02-19T13:19:16.000Z</time>
      </trkpt>
      <trkpt lat="49.52385" lon="3.66789">
        <ele>92.75</ele>
        <time>2018-02-19T13:19:26.000Z</time>
      </trkpt>
      <trkpt lat="49.52375" lon="3.66801">
        <ele>93.1</ele>
        <time>2018-02-19T13:19:36.000Z</time>
      </trkpt>
      <trkpt lat="49.52362" lon="3.66808">
        <ele>93.46</ele>
        <time>2018-02-19T13:19:46.000Z</time>
      </trkpt>
      <trkpt lat="49.52349" lon="3.66818">
        <ele>93.7</ele>
        <time>2018-02-19T13:19:56.000Z</time>
      </trkpt>
      <trkpt lat="49.52337" lon="3.66825">
        <ele>94.09</ele>
        <time>2018-02-19T13:20:06.000Z</time>
      </trkpt>
      <trkpt lat="49.52322" lon="3.66834">
        <ele>94.45</ele>
        <time>2018-02-19T13:20:16.000Z</time>
      </trkpt>
      <trkpt lat="49.52309" lon="3.66838">
        <ele>94.74</ele>
        <time>2018-02-19T13:20:26.000Z</time>
      </trkpt>
      <trkpt lat="49.52298" lon="3.66841">
        <ele>94.91</ele>
        <time>2018-02-19T13:20:36.000Z</time>
      </trkpt>
      <trkpt lat="49.52289" lon="3.6684">
        <ele>94.85</ele>
        <time>2018-02-19T13:20:46.000Z</time>
      </trkpt>
      <trkpt lat="49.5228" lon="3.66835">
        <ele>94.12</ele>
        <time>2018-02-19T13:20:56.000Z</time>
      </trkpt>
      <trkpt lat="49.52269" lon="3.6683">
        <ele>93.46</ele>
        <time>2018-02-19T13:21:06.000Z</time>
      </trkpt>
      <trkpt lat="49.52255" lon="3.6682">
        <ele>93.5</ele>
        <time>2018-02-19T13:21:16.000Z</time>
      </trkpt>
      <trkpt lat="49.5224" lon="3.66812">
        <ele>93.56</ele>
        <time>2018-02-19T13:21:26.000Z</time>
      </trkpt>
      <trkpt lat="49.52227" lon="3.66801">
        <ele>93.7</ele>
        <time>2018-02-19T13:21:36.000Z</time>
      </trkpt>
      <trkpt lat="49.52214" lon="3.6679">
        <ele>93.86</ele>
        <time>2018-02-19T13:21:46.000Z</time>
      </trkpt>
      <trkpt lat="49.52198" lon="3.66785">
        <ele>94.33</ele>
        <time>2018-02-19T13:21:56.000Z</time>
      </trkpt>
      <trkpt lat="49.52182" lon="3.66781">
        <ele>95.15</ele>
        <time>2018-02-19T13:22:06.000Z</time>
      </trkpt>
      <trkpt lat="49.52172" lon="3.66776">
        <ele>96.05</ele>
        <time>2018-02-19T13:22:16.000Z</time>
      </trkpt>
      <trkpt lat="49.5216" lon="3.66769">
        <ele>96.97</ele>
        <time>2018-02-19T13:22:26.000Z</time>
      </trkpt>
      <trkpt lat="49.52149" lon="3.66764">
        <ele>97.64</ele>
        <time>2018-02-19T13:22:36.000Z</time>
      </trkpt>
      <trkpt lat="49.52137" lon="3.66763">
        <ele>98.05</ele>
        <time>2018-02-19T13:22:46.000Z</time>
      </trkpt>
      <trkpt lat="49.52119" lon="3.66762">
        <ele>98.5</ele>
        <time>2018-02-19T13:22:56.000Z</time>
      </trkpt>
      <trkpt lat="49.52107" lon="3.6676">
        <ele>98.89</ele>
        <time>2018-02-19T13:23:06.000Z</time>
      </trkpt>
      <trkpt lat="49.52098" lon="3.66746">
        <ele>99.5</ele>
        <time>2018-02-19T13:23:16.000Z</time>
      </trkpt>
      <trkpt lat="49.52092" lon="3.66722">
        <ele>100.03</ele>
        <time>2018-02-19T13:23:26.000Z</time>
      </trkpt>
      <trkpt lat="49.5209" lon="3.66703">
        <ele>100.82</ele>
        <time>2018-02-19T13:23:36.000Z</time>
      </trkpt>
      <trkpt lat="49.52085" lon="3.66682">
        <ele>101.49</ele>
        <time>2018-02-19T13:23:46.000Z</time>
      </trkpt>
      <trkpt lat="49.52081" lon="3.66667">
        <ele>101.68</ele>
        <time>2018-02-19T13:23:56.000Z</time>
      </trkpt>
      <trkpt lat="49.52068" lon="3.66658">
        <ele>102.48</ele>
        <time>2018-02-19T13:24:06.000Z</time>
      </trkpt>
      <trkpt lat="49.52057" lon="3.66662">
        <ele>103.44</ele>
        <time>2018-02-19T13:24:16.000Z</time>
      </trkpt>
      <trkpt lat="49.52046" lon="3.66664">
        <ele>104.35</ele>
        <time>2018-02-19T13:24:26.000Z</time>
      </trkpt>
      <trkpt lat="49.5203" lon="3.6666">
        <ele>105.14</ele>
        <time>2018-02-19T13:24:36.000Z</time>
      </trkpt>
      <trkpt lat="49.52017" lon="3.66657">
        <ele>105.6</ele>
        <time>2018-02-19T13:24:46.000Z</time>
      </trkpt>
      <trkpt lat="49.52003" lon="3.66651">
        <ele>105.52</ele>
        <time>2018-02-19T13:24:56.000Z</time>
      </trkpt>
      <trkpt lat="49.51991" lon="3.66644">
        <ele>105.88</ele>
        <time>2018-02-19T13:25:06.000Z</time>
      </trkpt>
      <trkpt lat="49.51979" lon="3.66641">
        <ele>106.65</ele>
        <time>2018-02-19T13:25:16.000Z</time>
      </trkpt>
      <trkpt lat="49.51968" lon="3.66638">
        <ele>107.09</ele>
        <time>2018-02-19T13:25:26.000Z</time>
      </trkpt>
      <trkpt lat="49.51957" lon="3.66635">
        <ele>107.01</ele>
        <time>2018-02-19T13:25:36.000Z</time>
      </trkpt>
      <trkpt lat="49.51946" lon="3.66633">
        <ele>106.81</ele>
        <time>2018-02-19T13:25:46.000Z</time>
      </trkpt>
      <trkpt lat="49.51936" lon="3.66631">
        <ele>106.72</ele>
        <time>2018-02-19T13:25:56.000Z</time>
      </trkpt>
      <trkpt lat="49.51926" lon="3.66633">
        <ele>106.89</ele>
        <time>2018-02-19T13:26:06.000Z</time>
      </trkpt>
      <trkpt lat="49.51912" lon="3.66639">
        <ele>107.1</ele>
        <time>2018-02-19T13:26:16.000Z</time>
      </trkpt>
      <trkpt lat="49.51902" lon="3.66643">
        <ele>107.28</ele>
        <time>2018-02-19T13:26:26.000Z</time>
      </trkpt>
      <trkpt lat="49.51891" lon="3.66647">
        <ele>107.58</ele>
        <time>2018-02-19T13:26:36.000Z</time>
      </trkpt>
      <trkpt lat="49.5188" lon="3.66652">
        <ele>108.05</ele>
        <time>2018-02-19T13:26:46.000Z</time>
      </trkpt>
      <trkpt lat="49.51868" lon="3.66654">
        <ele>108.28</ele>
        <time>2018-02-19T13:26:56.000Z</time>
      </trkpt>
      <trkpt lat="49.51857" lon="3.66659">
        <ele>108.46</ele>
        <time>2018-02-19T13:27:06.000Z</time>
      </trkpt>
      <trkpt lat="49.51845" lon="3.66664">
        <ele>108.6</ele>
        <time>2018-02-19T13:27:16.000Z</time>
      </trkpt>
      <trkpt lat="49.51835" lon="3.66672">
        <ele>109.19</ele>
        <time>2018-02-19T13:27:26.000Z</time>
      </trkpt>
      <trkpt lat="49.51825" lon="3.66678">
        <ele>109.9</ele>
        <time>2018-02-19T13:27:36.000Z</time>
      </trkpt>
      <trkpt lat="49.51814" lon="3.66684">
        <ele>110.22</ele>
        <time>2018-02-19T13:27:46.000Z</time>
      </trkpt>
      <trkpt lat="49.51803" lon="3.66689">
        <ele>110.36</ele>
        <time>2018-02-19T13:27:56.000Z</time>
      </trkpt>
      <trkpt lat="49.51792" lon="3.66695">
        <ele>110.38</ele>
        <time>2018-02-19T13:28:06.000Z</time>
      </trkpt>
      <trkpt lat="49.51781" lon="3.66701">
        <ele>110.46</ele>
        <time>2018-02-19T13:28:16.000Z</time>
      </trkpt>
      <trkpt lat="49.5177" lon="3.66708">
        <ele>110.33</ele>
        <time>2018-02-19T13:28:26.000Z</time>
      </trkpt>
      <trkpt lat="49.51762" lon="3.66714">
        <ele>110.31</ele>
        <time>2018-02-19T13:28:36.000Z</time>
      </trkpt>
      <trkpt lat="49.51752" lon="3.66721">
        <ele>110.57</ele>
        <time>2018-02-19T13:28:46.000Z</time>
      </trkpt>
      <trkpt lat="49.51742" lon="3.66726">
        <ele>110.72</ele>
        <time>2018-02-19T13:28:56.000Z</time>
      </trkpt>
      <trkpt lat="49.51732" lon="3.66731">
        <ele>110.77</ele>
        <time>2018-02-19T13:29:06.000Z</time>
      </trkpt>
      <trkpt lat="49.51722" lon="3.66736">
        <ele>110.7</ele>
        <time>2018-02-19T13:29:16.000Z</time>
      </trkpt>
      <trkpt lat="49.51712" lon="3.66744">
        <ele>110.5</ele>
        <time>2018-02-19T13:29:26.000Z</time>
      </trkpt>
      <trkpt lat="49.51703" lon="3.66751">
        <ele>110.69</ele>
        <time>2018-02-19T13:29:36.000Z</time>
      </trkpt>
      <trkpt lat="49.51695" lon="3.66756">
        <ele>111.24</ele>
        <time>2018-02-19T13:29:46.000Z</time>
      </trkpt>
      <trkpt lat="49.51684" lon="3.66759">
        <ele>112.13</ele>
        <time>2018-02-19T13:29:56.000Z</time>
      </trkpt>
      <trkpt lat="49.51675" lon="3.66762">
        <ele>113.16</ele>
        <time>2018-02-19T13:30:06.000Z</time>
      </trkpt>
      <trkpt lat="49.51672" lon="3.66764">
        <ele>113.62</ele>
        <time>2018-02-19T13:30:16.000Z</time>
      </trkpt>
      <trkpt lat="49.51662" lon="3.66769">
        <ele>113.72</ele>
        <time>2018-02-19T13:30:26.000Z</time>
      </trkpt>
      <trkpt lat="49.51647" lon="3.66771">
        <ele>114.22</ele>
        <time>2018-02-19T13:30:36.000Z</time>
      </trkpt>
      <trkpt lat="49.51635" lon="3.66778">
        <ele>115.44</ele>
        <time>2018-02-19T13:30:46.000Z</time>
      </trkpt>
      <trkpt lat="49.51626" lon="3.66785">
        <ele>116.75</ele>
        <time>2018-02-19T13:30:56.000Z</time>
      </trkpt>
      <trkpt lat="49.51619" lon="3.66791">
        <ele>118.22</ele>
        <time>2018-02-19T13:31:06.000Z</time>
      </trkpt>
      <trkpt lat="49.51609" lon="3.66793">
        <ele>119.52</ele>
        <time>2018-02-19T13:31:16.000Z</time>
      </trkpt>
      <trkpt lat="49.51603" lon="3.66797">
        <ele>120.84</ele>
        <time>2018-02-19T13:31:26.000Z</time>
      </trkpt>
      <trkpt lat="49.51594" lon="3.66802">
        <ele>122.27</ele>
        <time>2018-02-19T13:31:36.000Z</time>
      </trkpt>
      <trkpt lat="49.51587" lon="3.66804">
        <ele>123.54</ele>
        <time>2018-02-19T13:31:46.000Z</time>
      </trkpt>
      <trkpt lat="49.5158" lon="3.66811">
        <ele>126.47</ele>
        <time>2018-02-19T13:31:56.000Z</time>
      </trkpt>
      <trkpt lat="49.5157" lon="3.66811">
        <ele>128.88</ele>
        <time>2018-02-19T13:32:06.000Z</time>
      </trkpt>
      <trkpt lat="49.5156" lon="3.66811">
        <ele>130.64</ele>
        <time>2018-02-19T13:32:16.000Z</time>
      </trkpt>
      <trkpt lat="49.51548" lon="3.66812">
        <ele>132</ele>
        <time>2018-02-19T13:32:26.000Z</time>
      </trkpt>
      <trkpt lat="49.5154" lon="3.66815">
        <ele>132.19</ele>
        <time>2018-02-19T13:32:36.000Z</time>
      </trkpt>
      <trkpt lat="49.51531" lon="3.6682">
        <ele>133.2</ele>
        <time>2018-02-19T13:32:46.000Z</time>
      </trkpt>
      <trkpt lat="49.51522" lon="3.66829">
        <ele>134.42</ele>
        <time>2018-02-19T13:32:56.000Z</time>
      </trkpt>
      <trkpt lat="49.51513" lon="3.66838">
        <ele>135.84</ele>
        <time>2018-02-19T13:33:06.000Z</time>
      </trkpt>
      <trkpt lat="49.51513" lon="3.66836">
        <ele>137.09</ele>
        <time>2018-02-19T13:33:17.000Z</time>
      </trkpt>
      <trkpt lat="49.51512" lon="3.66841">
        <ele>138.12</ele>
        <time>2018-02-19T13:33:26.999Z</time>
      </trkpt>
      <trkpt lat="49.51501" lon="3.6685">
        <ele>140.19</ele>
        <time>2018-02-19T13:33:36.999Z</time>
      </trkpt>
      <trkpt lat="49.51489" lon="3.66858">
        <ele>142.63</ele>
        <time>2018-02-19T13:33:46.999Z</time>
      </trkpt>
      <trkpt lat="49.5148" lon="3.66867">
        <ele>144.93</ele>
        <time>2018-02-19T13:33:56.999Z</time>
      </trkpt>
      <trkpt lat="49.51471" lon="3.66873">
        <ele>147.41</ele>
        <time>2018-02-19T13:34:06.999Z</time>
      </trkpt>
      <trkpt lat="49.51461" lon="3.66878">
        <ele>150.08</ele>
        <time>2018-02-19T13:34:16.999Z</time>
      </trkpt>
      <trkpt lat="49.51458" lon="3.6688">
        <ele>150.94</ele>
        <time>2018-02-19T13:34:26.999Z</time>
      </trkpt>
      <trkpt lat="49.51458" lon="3.66878">
        <ele>151.26</ele>
        <time>2018-02-19T13:34:36.999Z</time>
      </trkpt>
      <trkpt lat="49.51457" lon="3.66881">
        <ele>151.5</ele>
        <time>2018-02-19T13:34:46.999Z</time>
      </trkpt>
      <trkpt lat="49.51453" lon="3.66885">
        <ele>151.67</ele>
        <time>2018-02-19T13:34:56.999Z</time>
      </trkpt>
      <trkpt lat="49.51452" lon="3.66884">
        <ele>151.97</ele>
        <time>2018-02-19T13:35:06.999Z</time>
      </trkpt>
      <trkpt lat="49.51453" lon="3.66883">
        <ele>152.16</ele>
        <time>2018-02-19T13:35:16.999Z</time>
      </trkpt>
      <trkpt lat="49.51452" lon="3.66884">
        <ele>151.62</ele>
        <time>2018-02-19T13:36:02.999Z</time>
      </trkpt>
      <trkpt lat="49.51453" lon="3.66886">
        <ele>151.36</ele>
        <time>2018-02-19T13:36:14.999Z</time>
      </trkpt>
      <trkpt lat="49.51454" lon="3.66886">
        <ele>151.15</ele>
        <time>2018-02-19T13:36:24.999Z</time>
      </trkpt>
      <trkpt lat="49.51453" lon="3.66888">
        <ele>150.96</ele>
        <time>2018-02-19T13:36:34.999Z</time>
      </trkpt>
      <trkpt lat="49.51452" lon="3.66889">
        <ele>150.61</ele>
        <time>2018-02-19T13:36:44.999Z</time>
      </trkpt>
      <trkpt lat="49.51454" lon="3.66887">
        <ele>150.32</ele>
        <time>2018-02-19T13:36:54.999Z</time>
      </trkpt>
      <trkpt lat="49.51454" lon="3.66889">
        <ele>150.31</ele>
        <time>2018-02-19T13:37:04.999Z</time>
      </trkpt>
      <trkpt lat="49.51454" lon="3.66887">
        <ele>151.14</ele>
        <time>2018-02-19T13:37:28.999Z</time>
      </trkpt>
      <trkpt lat="49.51455" lon="3.66887">
        <ele>152.69</ele>
        <time>2018-02-19T13:37:51.999Z</time>
      </trkpt>
      <trkpt lat="49.51455" lon="3.66889">
        <ele>153.4</ele>
        <time>2018-02-19T13:38:05.999Z</time>
      </trkpt>
      <trkpt lat="49.51454" lon="3.66888">
        <ele>154.22</ele>
        <time>2018-02-19T13:38:15.999Z</time>
      </trkpt>
      <trkpt lat="49.51454" lon="3.66887">
        <ele>155.54</ele>
        <time>2018-02-19T13:38:35.999Z</time>
      </trkpt>
      <trkpt lat="49.51453" lon="3.66886">
        <ele>156.04</ele>
        <time>2018-02-19T13:38:45.999Z</time>
      </trkpt>
      <trkpt lat="49.5145" lon="3.66887">
        <ele>156.64</ele>
        <time>2018-02-19T13:38:55.999Z</time>
      </trkpt>
      <trkpt lat="49.5145" lon="3.66886">
        <ele>156.88</ele>
        <time>2018-02-19T13:39:05.999Z</time>
      </trkpt>
      <trkpt lat="49.51449" lon="3.66885">
        <ele>157.3</ele>
        <time>2018-02-19T13:39:17.999Z</time>
      </trkpt>
      <trkpt lat="49.51449" lon="3.66884">
        <ele>157.63</ele>
        <time>2018-02-19T13:39:28.999Z</time>
      </trkpt>
      <trkpt lat="49.51451" lon="3.66881">
        <ele>157.76</ele>
        <time>2018-02-19T13:39:38.999Z</time>
      </trkpt>
      <trkpt lat="49.51445" lon="3.6689">
        <ele>158.68</ele>
        <time>2018-02-19T13:39:48.999Z</time>
      </trkpt>
      <trkpt lat="49.51431" lon="3.66906">
        <ele>159.45</ele>
        <time>2018-02-19T13:39:58.999Z</time>
      </trkpt>
      <trkpt lat="49.51422" lon="3.66915">
        <ele>159.95</ele>
        <time>2018-02-19T13:40:08.999Z</time>
      </trkpt>
      <trkpt lat="49.51414" lon="3.66923">
        <ele>160.6</ele>
        <time>2018-02-19T13:40:18.999Z</time>
      </trkpt>
      <trkpt lat="49.51405" lon="3.6693">
        <ele>160.89</ele>
        <time>2018-02-19T13:40:28.999Z</time>
      </trkpt>
      <trkpt lat="49.51395" lon="3.66936">
        <ele>161.03</ele>
        <time>2018-02-19T13:40:38.999Z</time>
      </trkpt>
      <trkpt lat="49.51384" lon="3.66943">
        <ele>161.22</ele>
        <time>2018-02-19T13:40:48.999Z</time>
      </trkpt>
      <trkpt lat="49.51373" lon="3.66949">
        <ele>161.77</ele>
        <time>2018-02-19T13:40:58.999Z</time>
      </trkpt>
      <trkpt lat="49.51359" lon="3.66954">
        <ele>162.69</ele>
        <time>2018-02-19T13:41:08.999Z</time>
      </trkpt>
      <trkpt lat="49.51349" lon="3.66957">
        <ele>163.29</ele>
        <time>2018-02-19T13:41:18.999Z</time>
      </trkpt>
      <trkpt lat="49.51338" lon="3.66962">
        <ele>163.97</ele>
        <time>2018-02-19T13:41:28.999Z</time>
      </trkpt>
      <trkpt lat="49.51325" lon="3.66966">
        <ele>164.94</ele>
        <time>2018-02-19T13:41:38.999Z</time>
      </trkpt>
      <trkpt lat="49.51313" lon="3.66968">
        <ele>165.75</ele>
        <time>2018-02-19T13:41:48.999Z</time>
      </trkpt>
      <trkpt lat="49.51302" lon="3.66971">
        <ele>166.38</ele>
        <time>2018-02-19T13:41:58.999Z</time>
      </trkpt>
      <trkpt lat="49.5129" lon="3.66974">
        <ele>166.79</ele>
        <time>2018-02-19T13:42:08.999Z</time>
      </trkpt>
      <trkpt lat="49.51276" lon="3.66978">
        <ele>167.28</ele>
        <time>2018-02-19T13:42:18.999Z</time>
      </trkpt>
      <trkpt lat="49.51267" lon="3.66985">
        <ele>167.35</ele>
        <time>2018-02-19T13:42:28.999Z</time>
      </trkpt>
      <trkpt lat="49.51255" lon="3.66993">
        <ele>167.26</ele>
        <time>2018-02-19T13:42:38.999Z</time>
      </trkpt>
      <trkpt lat="49.51245" lon="3.67">
        <ele>167.22</ele>
        <time>2018-02-19T13:42:48.999Z</time>
      </trkpt>
      <trkpt lat="49.51235" lon="3.67007">
        <ele>166.77</ele>
        <time>2018-02-19T13:42:58.999Z</time>
      </trkpt>
      <trkpt lat="49.51224" lon="3.67013">
        <ele>166.74</ele>
        <time>2018-02-19T13:43:08.999Z</time>
      </trkpt>
      <trkpt lat="49.51214" lon="3.67019">
        <ele>167.41</ele>
        <time>2018-02-19T13:43:18.999Z</time>
      </trkpt>
      <trkpt lat="49.51198" lon="3.67026">
        <ele>168.24</ele>
        <time>2018-02-19T13:43:28.999Z</time>
      </trkpt>
      <trkpt lat="49.51188" lon="3.67032">
        <ele>168.85</ele>
        <time>2018-02-19T13:43:38.999Z</time>
      </trkpt>
      <trkpt lat="49.51176" lon="3.67038">
        <ele>169.21</ele>
        <time>2018-02-19T13:43:48.999Z</time>
      </trkpt>
      <trkpt lat="49.51166" lon="3.67043">
        <ele>169.32</ele>
        <time>2018-02-19T13:43:58.999Z</time>
      </trkpt>
      <trkpt lat="49.51154" lon="3.67048">
        <ele>169.15</ele>
        <time>2018-02-19T13:44:08.999Z</time>
      </trkpt>
      <trkpt lat="49.51143" lon="3.67053">
        <ele>168.89</ele>
        <time>2018-02-19T13:44:18.999Z</time>
      </trkpt>
      <trkpt lat="49.51132" lon="3.67059">
        <ele>168.82</ele>
        <time>2018-02-19T13:44:28.999Z</time>
      </trkpt>
      <trkpt lat="49.51121" lon="3.67066">
        <ele>169.54</ele>
        <time>2018-02-19T13:44:38.999Z</time>
      </trkpt>
      <trkpt lat="49.51111" lon="3.67073">
        <ele>170.7</ele>
        <time>2018-02-19T13:44:48.999Z</time>
      </trkpt>
      <trkpt lat="49.51097" lon="3.67077">
        <ele>171.66</ele>
        <time>2018-02-19T13:44:58.999Z</time>
      </trkpt>
      <trkpt lat="49.51086" lon="3.67085">
        <ele>171.89</ele>
        <time>2018-02-19T13:45:08.999Z</time>
      </trkpt>
      <trkpt lat="49.51075" lon="3.67092">
        <ele>171.41</ele>
        <time>2018-02-19T13:45:18.999Z</time>
      </trkpt>
      <trkpt lat="49.51065" lon="3.671">
        <ele>170.96</ele>
        <time>2018-02-19T13:45:28.999Z</time>
      </trkpt>
      <trkpt lat="49.51054" lon="3.67108">
        <ele>170.68</ele>
        <time>2018-02-19T13:45:38.999Z</time>
      </trkpt>
      <trkpt lat="49.51043" lon="3.67114">
        <ele>170.99</ele>
        <time>2018-02-19T13:45:48.999Z</time>
      </trkpt>
      <trkpt lat="49.51031" lon="3.67121">
        <ele>171.31</ele>
        <time>2018-02-19T13:45:58.999Z</time>
      </trkpt>
      <trkpt lat="49.51019" lon="3.67128">
        <ele>171.32</ele>
        <time>2018-02-19T13:46:08.999Z</time>
      </trkpt>
      <trkpt lat="49.51008" lon="3.67134">
        <ele>171.47</ele>
        <time>2018-02-19T13:46:18.999Z</time>
      </trkpt>
      <trkpt lat="49.50996" lon="3.6714">
        <ele>171.58</ele>
        <time>2018-02-19T13:46:28.999Z</time>
      </trkpt>
      <trkpt lat="49.50986" lon="3.67146">
        <ele>171.78</ele>
        <time>2018-02-19T13:46:38.999Z</time>
      </trkpt>
      <trkpt lat="49.50975" lon="3.67153">
        <ele>172.12</ele>
        <time>2018-02-19T13:46:48.999Z</time>
      </trkpt>
      <trkpt lat="49.50964" lon="3.67159">
        <ele>172.44</ele>
        <time>2018-02-19T13:46:58.999Z</time>
      </trkpt>
      <trkpt lat="49.50953" lon="3.67167">
        <ele>172.67</ele>
        <time>2018-02-19T13:47:08.999Z</time>
      </trkpt>
      <trkpt lat="49.5094" lon="3.67173">
        <ele>173.1</ele>
        <time>2018-02-19T13:47:18.999Z</time>
      </trkpt>
      <trkpt lat="49.50929" lon="3.67179">
        <ele>173.61</ele>
        <time>2018-02-19T13:47:28.999Z</time>
      </trkpt>
      <trkpt lat="49.50918" lon="3.67186">
        <ele>173.99</ele>
        <time>2018-02-19T13:47:38.999Z</time>
      </trkpt>
      <trkpt lat="49.50907" lon="3.67191">
        <ele>174.08</ele>
        <time>2018-02-19T13:47:48.999Z</time>
      </trkpt>
      <trkpt lat="49.50896" lon="3.67197">
        <ele>174.57</ele>
        <time>2018-02-19T13:47:58.999Z</time>
      </trkpt>
      <trkpt lat="49.50884" lon="3.67205">
        <ele>174.83</ele>
        <time>2018-02-19T13:48:08.999Z</time>
      </trkpt>
      <trkpt lat="49.50873" lon="3.67211">
        <ele>175</ele>
        <time>2018-02-19T13:48:18.999Z</time>
      </trkpt>
      <trkpt lat="49.50862" lon="3.67218">
        <ele>175.37</ele>
        <time>2018-02-19T13:48:28.999Z</time>
      </trkpt>
      <trkpt lat="49.50851" lon="3.67223">
        <ele>175.77</ele>
        <time>2018-02-19T13:48:38.999Z</time>
      </trkpt>
      <trkpt lat="49.50839" lon="3.6723">
        <ele>175.92</ele>
        <time>2018-02-19T13:48:48.999Z</time>
      </trkpt>
      <trkpt lat="49.50827" lon="3.67236">
        <ele>176.06</ele>
        <time>2018-02-19T13:48:58.999Z</time>
      </trkpt>
      <trkpt lat="49.50816" lon="3.67245">
        <ele>176.59</ele>
        <time>2018-02-19T13:49:08.999Z</time>
      </trkpt>
      <trkpt lat="49.50806" lon="3.67246">
        <ele>177.05</ele>
        <time>2018-02-19T13:49:18.999Z</time>
      </trkpt>
      <trkpt lat="49.508" lon="3.67229">
        <ele>177.92</ele>
        <time>2018-02-19T13:49:28.999Z</time>
      </trkpt>
      <trkpt lat="49.50796" lon="3.67212">
        <ele>179.27</ele>
        <time>2018-02-19T13:49:38.999Z</time>
      </trkpt>
      <trkpt lat="49.50791" lon="3.67196">
        <ele>180.34</ele>
        <time>2018-02-19T13:49:48.999Z</time>
      </trkpt>
      <trkpt lat="49.50785" lon="3.6718">
        <ele>181.18</ele>
        <time>2018-02-19T13:49:58.999Z</time>
      </trkpt>
      <trkpt lat="49.5078" lon="3.67166">
        <ele>182</ele>
        <time>2018-02-19T13:50:08.999Z</time>
      </trkpt>
      <trkpt lat="49.50774" lon="3.6715">
        <ele>182.39</ele>
        <time>2018-02-19T13:50:18.999Z</time>
      </trkpt>
      <trkpt lat="49.50769" lon="3.67134">
        <ele>182.99</ele>
        <time>2018-02-19T13:50:28.999Z</time>
      </trkpt>
      <trkpt lat="49.50764" lon="3.67119">
        <ele>183.15</ele>
        <time>2018-02-19T13:50:38.999Z</time>
      </trkpt>
      <trkpt lat="49.5076" lon="3.67103">
        <ele>183.09</ele>
        <time>2018-02-19T13:50:48.999Z</time>
      </trkpt>
      <trkpt lat="49.50753" lon="3.67083">
        <ele>183.72</ele>
        <time>2018-02-19T13:50:58.999Z</time>
      </trkpt>
      <trkpt lat="49.50748" lon="3.67067">
        <ele>184.17</ele>
        <time>2018-02-19T13:51:08.999Z</time>
      </trkpt>
      <trkpt lat="49.50743" lon="3.67053">
        <ele>183.99</ele>
        <time>2018-02-19T13:51:18.999Z</time>
      </trkpt>
      <trkpt lat="49.50739" lon="3.67037">
        <ele>183.37</ele>
        <time>2018-02-19T13:51:28.999Z</time>
      </trkpt>
      <trkpt lat="49.50732" lon="3.6702">
        <ele>182.71</ele>
        <time>2018-02-19T13:51:38.999Z</time>
      </trkpt>
      <trkpt lat="49.50727" lon="3.67003">
        <ele>182.34</ele>
        <time>2018-02-19T13:51:48.999Z</time>
      </trkpt>
      <trkpt lat="49.50721" lon="3.66989">
        <ele>182.05</ele>
        <time>2018-02-19T13:51:58.999Z</time>
      </trkpt>
      <trkpt lat="49.50717" lon="3.66974">
        <ele>181.41</ele>
        <time>2018-02-19T13:52:08.999Z</time>
      </trkpt>
      <trkpt lat="49.50711" lon="3.66956">
        <ele>180.85</ele>
        <time>2018-02-19T13:52:18.999Z</time>
      </trkpt>
      <trkpt lat="49.50705" lon="3.66942">
        <ele>180.52</ele>
        <time>2018-02-19T13:52:28.999Z</time>
      </trkpt>
      <trkpt lat="49.50701" lon="3.6693">
        <ele>180.36</ele>
        <time>2018-02-19T13:52:38.999Z</time>
      </trkpt>
      <trkpt lat="49.50698" lon="3.66916">
        <ele>179.61</ele>
        <time>2018-02-19T13:52:48.999Z</time>
      </trkpt>
      <trkpt lat="49.50693" lon="3.66915">
        <ele>179.2</ele>
        <time>2018-02-19T13:52:58.999Z</time>
      </trkpt>
      <trkpt lat="49.5069" lon="3.66921">
        <ele>179.22</ele>
        <time>2018-02-19T13:53:08.999Z</time>
      </trkpt>
      <trkpt lat="49.50688" lon="3.66924">
        <ele>179.07</ele>
        <time>2018-02-19T13:53:18.999Z</time>
      </trkpt>
      <trkpt lat="49.50689" lon="3.66924">
        <ele>178.3</ele>
        <time>2018-02-19T13:53:33.999Z</time>
      </trkpt>
      <trkpt lat="49.50682" lon="3.66909">
        <ele>176.9</ele>
        <time>2018-02-19T13:53:43.999Z</time>
      </trkpt>
      <trkpt lat="49.5068" lon="3.66903">
        <ele>176.09</ele>
        <time>2018-02-19T13:53:53.999Z</time>
      </trkpt>
      <trkpt lat="49.50681" lon="3.66905">
        <ele>174.14</ele>
        <time>2018-02-19T13:54:07.999Z</time>
      </trkpt>
      <trkpt lat="49.5068" lon="3.66906">
        <ele>172.54</ele>
        <time>2018-02-19T13:54:17.999Z</time>
      </trkpt>
      <trkpt lat="49.50681" lon="3.66912">
        <ele>171.72</ele>
        <time>2018-02-19T13:54:27.999Z</time>
      </trkpt>
      <trkpt lat="49.50681" lon="3.66914">
        <ele>171.12</ele>
        <time>2018-02-19T13:54:54.000Z</time>
      </trkpt>
      <trkpt lat="49.50681" lon="3.66918">
        <ele>170.97</ele>
        <time>2018-02-19T13:55:04.000Z</time>
      </trkpt>
      <trkpt lat="49.50681" lon="3.66919">
        <ele>170.93</ele>
        <time>2018-02-19T13:55:15.000Z</time>
      </trkpt>
      <trkpt lat="49.50679" lon="3.6692">
        <ele>171</ele>
        <time>2018-02-19T13:55:25.000Z</time>
      </trkpt>
      <trkpt lat="49.50677" lon="3.66923">
        <ele>171.52</ele>
        <time>2018-02-19T13:55:35.000Z</time>
      </trkpt>
      <trkpt lat="49.50668" lon="3.66931">
        <ele>172.52</ele>
        <time>2018-02-19T13:55:45.000Z</time>
      </trkpt>
      <trkpt lat="49.50656" lon="3.66937">
        <ele>174.14</ele>
        <time>2018-02-19T13:55:55.000Z</time>
      </trkpt>
      <trkpt lat="49.50644" lon="3.66947">
        <ele>174.14</ele>
        <time>2018-02-19T13:56:05.000Z</time>
      </trkpt>
      <trkpt lat="49.50633" lon="3.66952">
        <ele>173.47</ele>
        <time>2018-02-19T13:56:15.000Z</time>
      </trkpt>
      <trkpt lat="49.50625" lon="3.66953">
        <ele>173.03</ele>
        <time>2018-02-19T13:56:25.000Z</time>
      </trkpt>
      <trkpt lat="49.50614" lon="3.66955">
        <ele>172.83</ele>
        <time>2018-02-19T13:56:35.000Z</time>
      </trkpt>
      <trkpt lat="49.50601" lon="3.66957">
        <ele>172.97</ele>
        <time>2018-02-19T13:56:45.000Z</time>
      </trkpt>
      <trkpt lat="49.50589" lon="3.66958">
        <ele>173.37</ele>
        <time>2018-02-19T13:56:55.000Z</time>
      </trkpt>
      <trkpt lat="49.50576" lon="3.66957">
        <ele>173.54</ele>
        <time>2018-02-19T13:57:05.000Z</time>
      </trkpt>
      <trkpt lat="49.50566" lon="3.66956">
        <ele>173.35</ele>
        <time>2018-02-19T13:57:15.000Z</time>
      </trkpt>
      <trkpt lat="49.50558" lon="3.66956">
        <ele>173.38</ele>
        <time>2018-02-19T13:57:25.000Z</time>
      </trkpt>
      <trkpt lat="49.50546" lon="3.66953">
        <ele>174.13</ele>
        <time>2018-02-19T13:57:35.000Z</time>
      </trkpt>
      <trkpt lat="49.50529" lon="3.66951">
        <ele>174.74</ele>
        <time>2018-02-19T13:57:45.000Z</time>
      </trkpt>
      <trkpt lat="49.50518" lon="3.66949">
        <ele>174.98</ele>
        <time>2018-02-19T13:57:55.000Z</time>
      </trkpt>
      <trkpt lat="49.50509" lon="3.66944">
        <ele>174.99</ele>
        <time>2018-02-19T13:58:05.000Z</time>
      </trkpt>
      <trkpt lat="49.50499" lon="3.66938">
        <ele>174.93</ele>
        <time>2018-02-19T13:58:15.000Z</time>
      </trkpt>
      <trkpt lat="49.50486" lon="3.66938">
        <ele>174.54</ele>
        <time>2018-02-19T13:58:25.000Z</time>
      </trkpt>
      <trkpt lat="49.50476" lon="3.66939">
        <ele>174.5</ele>
        <time>2018-02-19T13:58:35.000Z</time>
      </trkpt>
      <trkpt lat="49.50464" lon="3.66941">
        <ele>175.11</ele>
        <time>2018-02-19T13:58:45.000Z</time>
      </trkpt>
      <trkpt lat="49.50449" lon="3.66949">
        <ele>175.47</ele>
        <time>2018-02-19T13:58:55.000Z</time>
      </trkpt>
      <trkpt lat="49.5044" lon="3.66947">
        <ele>175.86</ele>
        <time>2018-02-19T13:59:05.000Z</time>
      </trkpt>
      <trkpt lat="49.50429" lon="3.66948">
        <ele>176.77</ele>
        <time>2018-02-19T13:59:15.000Z</time>
      </trkpt>
      <trkpt lat="49.50415" lon="3.66951">
        <ele>177.65</ele>
        <time>2018-02-19T13:59:25.000Z</time>
      </trkpt>
      <trkpt lat="49.50402" lon="3.66953">
        <ele>178.51</ele>
        <time>2018-02-19T13:59:35.000Z</time>
      </trkpt>
      <trkpt lat="49.50392" lon="3.66957">
        <ele>179.07</ele>
        <time>2018-02-19T13:59:45.000Z</time>
      </trkpt>
      <trkpt lat="49.50383" lon="3.66958">
        <ele>178.95</ele>
        <time>2018-02-19T13:59:55.000Z</time>
      </trkpt>
      <trkpt lat="49.50373" lon="3.66959">
        <ele>178.71</ele>
        <time>2018-02-19T14:00:05.000Z</time>
      </trkpt>
      <trkpt lat="49.50358" lon="3.66963">
        <ele>177.93</ele>
        <time>2018-02-19T14:00:15.000Z</time>
      </trkpt>
      <trkpt lat="49.50345" lon="3.66961">
        <ele>177.24</ele>
        <time>2018-02-19T14:00:25.000Z</time>
      </trkpt>
      <trkpt lat="49.50336" lon="3.66955">
        <ele>177.29</ele>
        <time>2018-02-19T14:00:35.000Z</time>
      </trkpt>
      <trkpt lat="49.50327" lon="3.66947">
        <ele>177.6</ele>
        <time>2018-02-19T14:00:45.000Z</time>
      </trkpt>
      <trkpt lat="49.50327" lon="3.66949">
        <ele>177.6</ele>
        <time>2018-02-19T14:00:56.000Z</time>
      </trkpt>
      <trkpt lat="49.50307" lon="3.66944">
        <ele>177.73</ele>
        <time>2018-02-19T14:01:06.000Z</time>
      </trkpt>
      <trkpt lat="49.50293" lon="3.66938">
        <ele>177.51</ele>
        <time>2018-02-19T14:01:16.000Z</time>
      </trkpt>
      <trkpt lat="49.50282" lon="3.66932">
        <ele>177.09</ele>
        <time>2018-02-19T14:01:26.000Z</time>
      </trkpt>
      <trkpt lat="49.50271" lon="3.66925">
        <ele>176.79</ele>
        <time>2018-02-19T14:01:36.000Z</time>
      </trkpt>
      <trkpt lat="49.50259" lon="3.66919">
        <ele>176.71</ele>
        <time>2018-02-19T14:01:46.000Z</time>
      </trkpt>
      <trkpt lat="49.50249" lon="3.66915">
        <ele>176.81</ele>
        <time>2018-02-19T14:01:56.000Z</time>
      </trkpt>
      <trkpt lat="49.5024" lon="3.66911">
        <ele>177.09</ele>
        <time>2018-02-19T14:02:06.000Z</time>
      </trkpt>
      <trkpt lat="49.50231" lon="3.66904">
        <ele>177.6</ele>
        <time>2018-02-19T14:02:16.000Z</time>
      </trkpt>
      <trkpt lat="49.50222" lon="3.66894">
        <ele>178.39</ele>
        <time>2018-02-19T14:02:26.000Z</time>
      </trkpt>
      <trkpt lat="49.50213" lon="3.66886">
        <ele>179.51</ele>
        <time>2018-02-19T14:02:36.000Z</time>
      </trkpt>
      <trkpt lat="49.50204" lon="3.66879">
        <ele>180.77</ele>
        <time>2018-02-19T14:02:46.000Z</time>
      </trkpt>
      <trkpt lat="49.50201" lon="3.66875">
        <ele>181.57</ele>
        <time>2018-02-19T14:02:56.000Z</time>
      </trkpt>
      <trkpt lat="49.50194" lon="3.66867">
        <ele>181.77</ele>
        <time>2018-02-19T14:03:06.000Z</time>
      </trkpt>
      <trkpt lat="49.50188" lon="3.66858">
        <ele>181.77</ele>
        <time>2018-02-19T14:03:16.000Z</time>
      </trkpt>
      <trkpt lat="49.50181" lon="3.66845">
        <ele>181.83</ele>
        <time>2018-02-19T14:03:26.000Z</time>
      </trkpt>
      <trkpt lat="49.50173" lon="3.66837">
        <ele>182.31</ele>
        <time>2018-02-19T14:03:36.000Z</time>
      </trkpt>
      <trkpt lat="49.50166" lon="3.66825">
        <ele>183.86</ele>
        <time>2018-02-19T14:03:46.000Z</time>
      </trkpt>
      <trkpt lat="49.50158" lon="3.66816">
        <ele>184.81</ele>
        <time>2018-02-19T14:03:56.000Z</time>
      </trkpt>
      <trkpt lat="49.50152" lon="3.66804">
        <ele>185.86</ele>
        <time>2018-02-19T14:04:06.000Z</time>
      </trkpt>
      <trkpt lat="49.50143" lon="3.66797">
        <ele>186.97</ele>
        <time>2018-02-19T14:04:16.000Z</time>
      </trkpt>
      <trkpt lat="49.50132" lon="3.66785">
        <ele>187.87</ele>
        <time>2018-02-19T14:04:26.000Z</time>
      </trkpt>
      <trkpt lat="49.50123" lon="3.66776">
        <ele>188.59</ele>
        <time>2018-02-19T14:04:36.000Z</time>
      </trkpt>
      <trkpt lat="49.50114" lon="3.66768">
        <ele>189.3</ele>
        <time>2018-02-19T14:04:46.000Z</time>
      </trkpt>
      <trkpt lat="49.50105" lon="3.66757">
        <ele>189.77</ele>
        <time>2018-02-19T14:04:56.000Z</time>
      </trkpt>
      <trkpt lat="49.50096" lon="3.66749">
        <ele>190.4</ele>
        <time>2018-02-19T14:05:06.000Z</time>
      </trkpt>
      <trkpt lat="49.50085" lon="3.66744">
        <ele>191.26</ele>
        <time>2018-02-19T14:05:16.000Z</time>
      </trkpt>
      <trkpt lat="49.50078" lon="3.66742">
        <ele>192.07</ele>
        <time>2018-02-19T14:05:26.000Z</time>
      </trkpt>
      <trkpt lat="49.50071" lon="3.66739">
        <ele>192.87</ele>
        <time>2018-02-19T14:05:36.000Z</time>
      </trkpt>
      <trkpt lat="49.50061" lon="3.66732">
        <ele>193.53</ele>
        <time>2018-02-19T14:05:46.000Z</time>
      </trkpt>
      <trkpt lat="49.5005" lon="3.66731">
        <ele>193.79</ele>
        <time>2018-02-19T14:05:56.000Z</time>
      </trkpt>
      <trkpt lat="49.50039" lon="3.66732">
        <ele>194.34</ele>
        <time>2018-02-19T14:06:06.000Z</time>
      </trkpt>
      <trkpt lat="49.5003" lon="3.66735">
        <ele>195.29</ele>
        <time>2018-02-19T14:06:16.000Z</time>
      </trkpt>
      <trkpt lat="49.5002" lon="3.66741">
        <ele>196.3</ele>
        <time>2018-02-19T14:06:26.000Z</time>
      </trkpt>
      <trkpt lat="49.50008" lon="3.66747">
        <ele>197.3</ele>
        <time>2018-02-19T14:06:36.000Z</time>
      </trkpt>
      <trkpt lat="49.50001" lon="3.66757">
        <ele>197.62</ele>
        <time>2018-02-19T14:06:46.000Z</time>
      </trkpt>
      <trkpt lat="49.49991" lon="3.66763">
        <ele>198.38</ele>
        <time>2018-02-19T14:06:56.000Z</time>
      </trkpt>
      <trkpt lat="49.4999" lon="3.66763">
        <ele>199.54</ele>
        <time>2018-02-19T14:07:06.000Z</time>
      </trkpt>
      <trkpt lat="49.49988" lon="3.66762">
        <ele>199.97</ele>
        <time>2018-02-19T14:07:16.000Z</time>
      </trkpt>
      <trkpt lat="49.49987" lon="3.66761">
        <ele>200.49</ele>
        <time>2018-02-19T14:07:26.000Z</time>
      </trkpt>
      <trkpt lat="49.49987" lon="3.66759">
        <ele>201.01</ele>
        <time>2018-02-19T14:07:37.000Z</time>
      </trkpt>
      <trkpt lat="49.49987" lon="3.66758">
        <ele>201.79</ele>
        <time>2018-02-19T14:07:55.000Z</time>
      </trkpt>
      <trkpt lat="49.49988" lon="3.66757">
        <ele>202.55</ele>
        <time>2018-02-19T14:08:17.000Z</time>
      </trkpt>
      <trkpt lat="49.49989" lon="3.66758">
        <ele>202.81</ele>
        <time>2018-02-19T14:08:27.000Z</time>
      </trkpt>
      <trkpt lat="49.49989" lon="3.66759">
        <ele>203.1</ele>
        <time>2018-02-19T14:08:39.000Z</time>
      </trkpt>
      <trkpt lat="49.49989" lon="3.66762">
        <ele>203.3</ele>
        <time>2018-02-19T14:08:49.000Z</time>
      </trkpt>
      <trkpt lat="49.49989" lon="3.66765">
        <ele>203.56</ele>
        <time>2018-02-19T14:08:59.000Z</time>
      </trkpt>
      <trkpt lat="49.49988" lon="3.66764">
        <ele>204.04</ele>
        <time>2018-02-19T14:09:13.000Z</time>
      </trkpt>
      <trkpt lat="49.49986" lon="3.66766">
        <ele>205.51</ele>
        <time>2018-02-19T14:09:23.000Z</time>
      </trkpt>
      <trkpt lat="49.49985" lon="3.66765">
        <ele>206.21</ele>
        <time>2018-02-19T14:09:33.000Z</time>
      </trkpt>
      <trkpt lat="49.49979" lon="3.66765">
        <ele>208.89</ele>
        <time>2018-02-19T14:09:43.000Z</time>
      </trkpt>
      <trkpt lat="49.49972" lon="3.66767">
        <ele>210.15</ele>
        <time>2018-02-19T14:09:53.000Z</time>
      </trkpt>
      <trkpt lat="49.49955" lon="3.66774">
        <ele>209.53</ele>
        <time>2018-02-19T14:10:03.000Z</time>
      </trkpt>
      <trkpt lat="49.49947" lon="3.66775">
        <ele>209.22</ele>
        <time>2018-02-19T14:10:13.000Z</time>
      </trkpt>
      <trkpt lat="49.49937" lon="3.66777">
        <ele>208.89</ele>
        <time>2018-02-19T14:10:23.000Z</time>
      </trkpt>
      <trkpt lat="49.49924" lon="3.66779">
        <ele>208.32</ele>
        <time>2018-02-19T14:10:33.000Z</time>
      </trkpt>
      <trkpt lat="49.49921" lon="3.66767">
        <ele>207.55</ele>
        <time>2018-02-19T14:10:43.000Z</time>
      </trkpt>
      <trkpt lat="49.49923" lon="3.66748">
        <ele>206.82</ele>
        <time>2018-02-19T14:10:53.000Z</time>
      </trkpt>
      <trkpt lat="49.49925" lon="3.66736">
        <ele>205.82</ele>
        <time>2018-02-19T14:11:03.000Z</time>
      </trkpt>
      <trkpt lat="49.49929" lon="3.66723">
        <ele>204.79</ele>
        <time>2018-02-19T14:11:13.000Z</time>
      </trkpt>
      <trkpt lat="49.49932" lon="3.66705">
        <ele>204.3</ele>
        <time>2018-02-19T14:11:23.000Z</time>
      </trkpt>
      <trkpt lat="49.49933" lon="3.66692">
        <ele>203.41</ele>
        <time>2018-02-19T14:11:33.000Z</time>
      </trkpt>
      <trkpt lat="49.49933" lon="3.66676">
        <ele>202.87</ele>
        <time>2018-02-19T14:11:43.000Z</time>
      </trkpt>
      <trkpt lat="49.49933" lon="3.66655">
        <ele>202.14</ele>
        <time>2018-02-19T14:11:53.000Z</time>
      </trkpt>
      <trkpt lat="49.49933" lon="3.66642">
        <ele>200.66</ele>
        <time>2018-02-19T14:12:03.000Z</time>
      </trkpt>
      <trkpt lat="49.49934" lon="3.66626">
        <ele>198.94</ele>
        <time>2018-02-19T14:12:13.000Z</time>
      </trkpt>
      <trkpt lat="49.49932" lon="3.66614">
        <ele>197.08</ele>
        <time>2018-02-19T14:12:23.000Z</time>
      </trkpt>
      <trkpt lat="49.49932" lon="3.66596">
        <ele>196.08</ele>
        <time>2018-02-19T14:12:33.000Z</time>
      </trkpt>
      <trkpt lat="49.49935" lon="3.6658">
        <ele>195.44</ele>
        <time>2018-02-19T14:12:43.000Z</time>
      </trkpt>
      <trkpt lat="49.49934" lon="3.66561">
        <ele>194.31</ele>
        <time>2018-02-19T14:12:53.000Z</time>
      </trkpt>
      <trkpt lat="49.49935" lon="3.66548">
        <ele>193.19</ele>
        <time>2018-02-19T14:13:03.000Z</time>
      </trkpt>
      <trkpt lat="49.49932" lon="3.66532">
        <ele>192.23</ele>
        <time>2018-02-19T14:13:13.000Z</time>
      </trkpt>
      <trkpt lat="49.49933" lon="3.66518">
        <ele>191.74</ele>
        <time>2018-02-19T14:13:23.000Z</time>
      </trkpt>
      <trkpt lat="49.49934" lon="3.66501">
        <ele>191.09</ele>
        <time>2018-02-19T14:13:33.000Z</time>
      </trkpt>
      <trkpt lat="49.49933" lon="3.66483">
        <ele>190.91</ele>
        <time>2018-02-19T14:13:43.000Z</time>
      </trkpt>
      <trkpt lat="49.49933" lon="3.66465">
        <ele>189.68</ele>
        <time>2018-02-19T14:13:53.000Z</time>
      </trkpt>
      <trkpt lat="49.49934" lon="3.66448">
        <ele>188</ele>
        <time>2018-02-19T14:14:03.000Z</time>
      </trkpt>
      <trkpt lat="49.49933" lon="3.66433">
        <ele>187.02</ele>
        <time>2018-02-19T14:14:13.000Z</time>
      </trkpt>
      <trkpt lat="49.49934" lon="3.66416">
        <ele>186.16</ele>
        <time>2018-02-19T14:14:23.000Z</time>
      </trkpt>
      <trkpt lat="49.49935" lon="3.664">
        <ele>185.72</ele>
        <time>2018-02-19T14:14:33.000Z</time>
      </trkpt>
      <trkpt lat="49.49944" lon="3.6639">
        <ele>185.05</ele>
        <time>2018-02-19T14:14:43.000Z</time>
      </trkpt>
      <trkpt lat="49.49958" lon="3.66388">
        <ele>185.12</ele>
        <time>2018-02-19T14:14:53.000Z</time>
      </trkpt>
      <trkpt lat="49.49969" lon="3.66386">
        <ele>185.54</ele>
        <time>2018-02-19T14:15:03.000Z</time>
      </trkpt>
      <trkpt lat="49.49981" lon="3.66387">
        <ele>184.65</ele>
        <time>2018-02-19T14:15:13.000Z</time>
      </trkpt>
      <trkpt lat="49.4999" lon="3.66385">
        <ele>183.05</ele>
        <time>2018-02-19T14:15:23.000Z</time>
      </trkpt>
      <trkpt lat="49.49999" lon="3.66385">
        <ele>181.26</ele>
        <time>2018-02-19T14:15:33.000Z</time>
      </trkpt>
      <trkpt lat="49.50009" lon="3.66385">
        <ele>179.17</ele>
        <time>2018-02-19T14:15:43.000Z</time>
      </trkpt>
      <trkpt lat="49.50018" lon="3.66388">
        <ele>176.7</ele>
        <time>2018-02-19T14:15:53.000Z</time>
      </trkpt>
      <trkpt lat="49.50028" lon="3.66392">
        <ele>174.17</ele>
        <time>2018-02-19T14:16:03.000Z</time>
      </trkpt>
      <trkpt lat="49.50037" lon="3.66395">
        <ele>171.72</ele>
        <time>2018-02-19T14:16:12.999Z</time>
      </trkpt>
      <trkpt lat="49.50049" lon="3.664">
        <ele>169.73</ele>
        <time>2018-02-19T14:16:22.999Z</time>
      </trkpt>
      <trkpt lat="49.5006" lon="3.66404">
        <ele>168.45</ele>
        <time>2018-02-19T14:16:32.999Z</time>
      </trkpt>
      <trkpt lat="49.50069" lon="3.66404">
        <ele>167.35</ele>
        <time>2018-02-19T14:16:42.999Z</time>
      </trkpt>
      <trkpt lat="49.50083" lon="3.66408">
        <ele>166.34</ele>
        <time>2018-02-19T14:16:52.999Z</time>
      </trkpt>
      <trkpt lat="49.50094" lon="3.6641">
        <ele>165.2</ele>
        <time>2018-02-19T14:17:02.999Z</time>
      </trkpt>
      <trkpt lat="49.50103" lon="3.6641">
        <ele>164.6</ele>
        <time>2018-02-19T14:17:12.999Z</time>
      </trkpt>
      <trkpt lat="49.50112" lon="3.6641">
        <ele>164.01</ele>
        <time>2018-02-19T14:17:22.999Z</time>
      </trkpt>
      <trkpt lat="49.50122" lon="3.66412">
        <ele>163.92</ele>
        <time>2018-02-19T14:17:32.999Z</time>
      </trkpt>
      <trkpt lat="49.50133" lon="3.66413">
        <ele>165.1</ele>
        <time>2018-02-19T14:17:42.999Z</time>
      </trkpt>
      <trkpt lat="49.50146" lon="3.66413">
        <ele>166.43</ele>
        <time>2018-02-19T14:17:52.999Z</time>
      </trkpt>
      <trkpt lat="49.50155" lon="3.66412">
        <ele>167.3</ele>
        <time>2018-02-19T14:18:02.999Z</time>
      </trkpt>
      <trkpt lat="49.50161" lon="3.66413">
        <ele>167.18</ele>
        <time>2018-02-19T14:18:12.999Z</time>
      </trkpt>
      <trkpt lat="49.50171" lon="3.66418">
        <ele>166.71</ele>
        <time>2018-02-19T14:18:22.999Z</time>
      </trkpt>
      <trkpt lat="49.50182" lon="3.66419">
        <ele>165.71</ele>
        <time>2018-02-19T14:18:32.999Z</time>
      </trkpt>
      <trkpt lat="49.50193" lon="3.66424">
        <ele>164.15</ele>
        <time>2018-02-19T14:18:42.999Z</time>
      </trkpt>
      <trkpt lat="49.50205" lon="3.66424">
        <ele>162.35</ele>
        <time>2018-02-19T14:18:52.999Z</time>
      </trkpt>
      <trkpt lat="49.50218" lon="3.6642">
        <ele>160.45</ele>
        <time>2018-02-19T14:19:02.999Z</time>
      </trkpt>
      <trkpt lat="49.50227" lon="3.66415">
        <ele>158.66</ele>
        <time>2018-02-19T14:19:12.999Z</time>
      </trkpt>
      <trkpt lat="49.50228" lon="3.66414">
        <ele>157.59</ele>
        <time>2018-02-19T14:19:22.999Z</time>
      </trkpt>
      <trkpt lat="49.50228" lon="3.66413">
        <ele>157.15</ele>
        <time>2018-02-19T14:19:55.999Z</time>
      </trkpt>
      <trkpt lat="49.50228" lon="3.66411">
        <ele>157</ele>
        <time>2018-02-19T14:20:06.999Z</time>
      </trkpt>
      <trkpt lat="49.50228" lon="3.66409">
        <ele>156.36</ele>
        <time>2018-02-19T14:20:24.999Z</time>
      </trkpt>
      <trkpt lat="49.50228" lon="3.66408">
        <ele>155.75</ele>
        <time>2018-02-19T14:20:34.999Z</time>
      </trkpt>
      <trkpt lat="49.50229" lon="3.66407">
        <ele>154.68</ele>
        <time>2018-02-19T14:21:00.999Z</time>
      </trkpt>
      <trkpt lat="49.5023" lon="3.66409">
        <ele>154.51</ele>
        <time>2018-02-19T14:21:12.999Z</time>
      </trkpt>
      <trkpt lat="49.50229" lon="3.6641">
        <ele>154.32</ele>
        <time>2018-02-19T14:21:36.999Z</time>
      </trkpt>
      <trkpt lat="49.50229" lon="3.66411">
        <ele>154.14</ele>
        <time>2018-02-19T14:21:53.999Z</time>
      </trkpt>
      <trkpt lat="49.50228" lon="3.66409">
        <ele>154.02</ele>
        <time>2018-02-19T14:22:03.999Z</time>
      </trkpt>
      <trkpt lat="49.50228" lon="3.66408">
        <ele>153.68</ele>
        <time>2018-02-19T14:22:16.999Z</time>
      </trkpt>
      <trkpt lat="49.50227" lon="3.66405">
        <ele>153.52</ele>
        <time>2018-02-19T14:22:26.999Z</time>
      </trkpt>
      <trkpt lat="49.50227" lon="3.66407">
        <ele>153.25</ele>
        <time>2018-02-19T14:23:04.999Z</time>
      </trkpt>
      <trkpt lat="49.50227" lon="3.66408">
        <ele>153.32</ele>
        <time>2018-02-19T14:23:21.999Z</time>
      </trkpt>
      <trkpt lat="49.50228" lon="3.66408">
        <ele>153.2</ele>
        <time>2018-02-19T14:24:05.999Z</time>
      </trkpt>
      <trkpt lat="49.50226" lon="3.66408">
        <ele>153.27</ele>
        <time>2018-02-19T14:24:15.999Z</time>
      </trkpt>
      <trkpt lat="49.50226" lon="3.66409">
        <ele>153.78</ele>
        <time>2018-02-19T14:25:04.999Z</time>
      </trkpt>
      <trkpt lat="49.50225" lon="3.66409">
        <ele>153.99</ele>
        <time>2018-02-19T14:25:18.999Z</time>
      </trkpt>
      <trkpt lat="49.50225" lon="3.66411">
        <ele>153.9</ele>
        <time>2018-02-19T14:25:32.999Z</time>
      </trkpt>
      <trkpt lat="49.50227" lon="3.6641">
        <ele>152.61</ele>
        <time>2018-02-19T14:25:56.999Z</time>
      </trkpt>
      <trkpt lat="49.50233" lon="3.66415">
        <ele>149.05</ele>
        <time>2018-02-19T14:26:06.999Z</time>
      </trkpt>
      <trkpt lat="49.50244" lon="3.66406">
        <ele>145.47</ele>
        <time>2018-02-19T14:26:16.999Z</time>
      </trkpt>
      <trkpt lat="49.50253" lon="3.66403">
        <ele>142.77</ele>
        <time>2018-02-19T14:26:26.999Z</time>
      </trkpt>
      <trkpt lat="49.50264" lon="3.66398">
        <ele>140.81</ele>
        <time>2018-02-19T14:26:36.999Z</time>
      </trkpt>
      <trkpt lat="49.50278" lon="3.66395">
        <ele>139.74</ele>
        <time>2018-02-19T14:26:46.999Z</time>
      </trkpt>
      <trkpt lat="49.50287" lon="3.66391">
        <ele>138.6</ele>
        <time>2018-02-19T14:26:56.999Z</time>
      </trkpt>
      <trkpt lat="49.50295" lon="3.66384">
        <ele>137.67</ele>
        <time>2018-02-19T14:27:06.999Z</time>
      </trkpt>
      <trkpt lat="49.50304" lon="3.66379">
        <ele>137.13</ele>
        <time>2018-02-19T14:27:16.999Z</time>
      </trkpt>
      <trkpt lat="49.50315" lon="3.66373">
        <ele>137.11</ele>
        <time>2018-02-19T14:27:26.999Z</time>
      </trkpt>
      <trkpt lat="49.50326" lon="3.66372">
        <ele>137.27</ele>
        <time>2018-02-19T14:27:36.999Z</time>
      </trkpt>
      <trkpt lat="49.50337" lon="3.66368">
        <ele>137.43</ele>
        <time>2018-02-19T14:27:46.999Z</time>
      </trkpt>
      <trkpt lat="49.50348" lon="3.66366">
        <ele>137.2</ele>
        <time>2018-02-19T14:27:56.999Z</time>
      </trkpt>
      <trkpt lat="49.50357" lon="3.66363">
        <ele>136.69</ele>
        <time>2018-02-19T14:28:06.999Z</time>
      </trkpt>
      <trkpt lat="49.50371" lon="3.66366">
        <ele>135.11</ele>
        <time>2018-02-19T14:28:16.999Z</time>
      </trkpt>
      <trkpt lat="49.50383" lon="3.66364">
        <ele>133.62</ele>
        <time>2018-02-19T14:28:26.999Z</time>
      </trkpt>
      <trkpt lat="49.50393" lon="3.66355">
        <ele>132.98</ele>
        <time>2018-02-19T14:28:36.999Z</time>
      </trkpt>
      <trkpt lat="49.50404" lon="3.66347">
        <ele>132.58</ele>
        <time>2018-02-19T14:28:46.999Z</time>
      </trkpt>
      <trkpt lat="49.50414" lon="3.66334">
        <ele>131.91</ele>
        <time>2018-02-19T14:28:56.999Z</time>
      </trkpt>
      <trkpt lat="49.50424" lon="3.66318">
        <ele>131.02</ele>
        <time>2018-02-19T14:29:06.999Z</time>
      </trkpt>
      <trkpt lat="49.50434" lon="3.66307">
        <ele>130.15</ele>
        <time>2018-02-19T14:29:16.999Z</time>
      </trkpt>
      <trkpt lat="49.50441" lon="3.66294">
        <ele>130.25</ele>
        <time>2018-02-19T14:29:26.999Z</time>
      </trkpt>
      <trkpt lat="49.50454" lon="3.66294">
        <ele>130.74</ele>
        <time>2018-02-19T14:29:36.999Z</time>
      </trkpt>
      <trkpt lat="49.50463" lon="3.66298">
        <ele>130.59</ele>
        <time>2018-02-19T14:29:46.999Z</time>
      </trkpt>
      <trkpt lat="49.5047" lon="3.663">
        <ele>130.04</ele>
        <time>2018-02-19T14:29:56.999Z</time>
      </trkpt>
      <trkpt lat="49.50477" lon="3.66302">
        <ele>129.72</ele>
        <time>2018-02-19T14:30:06.999Z</time>
      </trkpt>
      <trkpt lat="49.50484" lon="3.66298">
        <ele>130.2</ele>
        <time>2018-02-19T14:30:16.999Z</time>
      </trkpt>
      <trkpt lat="49.50492" lon="3.66295">
        <ele>130.82</ele>
        <time>2018-02-19T14:30:26.999Z</time>
      </trkpt>
      <trkpt lat="49.50494" lon="3.66293">
        <ele>130.97</ele>
        <time>2018-02-19T14:30:36.999Z</time>
      </trkpt>
      <trkpt lat="49.50499" lon="3.66294">
        <ele>132.36</ele>
        <time>2018-02-19T14:30:46.999Z</time>
      </trkpt>
      <trkpt lat="49.50506" lon="3.66289">
        <ele>134.04</ele>
        <time>2018-02-19T14:30:56.999Z</time>
      </trkpt>
      <trkpt lat="49.50513" lon="3.66277">
        <ele>135.3</ele>
        <time>2018-02-19T14:31:06.999Z</time>
      </trkpt>
      <trkpt lat="49.50521" lon="3.66266">
        <ele>136.76</ele>
        <time>2018-02-19T14:31:16.999Z</time>
      </trkpt>
      <trkpt lat="49.50525" lon="3.66261">
        <ele>138.36</ele>
        <time>2018-02-19T14:31:26.999Z</time>
      </trkpt>
      <trkpt lat="49.50531" lon="3.66253">
        <ele>138.42</ele>
        <time>2018-02-19T14:31:36.999Z</time>
      </trkpt>
      <trkpt lat="49.5054" lon="3.66247">
        <ele>137.75</ele>
        <time>2018-02-19T14:31:46.999Z</time>
      </trkpt>
      <trkpt lat="49.50549" lon="3.66234">
        <ele>138.17</ele>
        <time>2018-02-19T14:31:56.999Z</time>
      </trkpt>
      <trkpt lat="49.50557" lon="3.66227">
        <ele>138.91</ele>
        <time>2018-02-19T14:32:06.999Z</time>
      </trkpt>
      <trkpt lat="49.50561" lon="3.66218">
        <ele>139.49</ele>
        <time>2018-02-19T14:32:16.999Z</time>
      </trkpt>
      <trkpt lat="49.50565" lon="3.66212">
        <ele>139.58</ele>
        <time>2018-02-19T14:32:26.999Z</time>
      </trkpt>
      <trkpt lat="49.50572" lon="3.66207">
        <ele>139.84</ele>
        <time>2018-02-19T14:32:36.999Z</time>
      </trkpt>
      <trkpt lat="49.50584" lon="3.66206">
        <ele>140.06</ele>
        <time>2018-02-19T14:32:46.999Z</time>
      </trkpt>
      <trkpt lat="49.50602" lon="3.66195">
        <ele>140.21</ele>
        <time>2018-02-19T14:32:56.999Z</time>
      </trkpt>
      <trkpt lat="49.50615" lon="3.66185">
        <ele>140.65</ele>
        <time>2018-02-19T14:33:06.999Z</time>
      </trkpt>
      <trkpt lat="49.50626" lon="3.66175">
        <ele>141.82</ele>
        <time>2018-02-19T14:33:16.999Z</time>
      </trkpt>
      <trkpt lat="49.50631" lon="3.66168">
        <ele>142.33</ele>
        <time>2018-02-19T14:33:26.999Z</time>
      </trkpt>
      <trkpt lat="49.50637" lon="3.66162">
        <ele>142.63</ele>
        <time>2018-02-19T14:33:36.999Z</time>
      </trkpt>
      <trkpt lat="49.50646" lon="3.66151">
        <ele>141.64</ele>
        <time>2018-02-19T14:33:46.999Z</time>
      </trkpt>
      <trkpt lat="49.50656" lon="3.66142">
        <ele>140.28</ele>
        <time>2018-02-19T14:33:56.999Z</time>
      </trkpt>
      <trkpt lat="49.50662" lon="3.66139">
        <ele>140.58</ele>
        <time>2018-02-19T14:34:06.999Z</time>
      </trkpt>
      <trkpt lat="49.50671" lon="3.66138">
        <ele>141.7</ele>
        <time>2018-02-19T14:34:16.999Z</time>
      </trkpt>
      <trkpt lat="49.50679" lon="3.66136">
        <ele>142.39</ele>
        <time>2018-02-19T14:34:26.999Z</time>
      </trkpt>
      <trkpt lat="49.50689" lon="3.66138">
        <ele>142.97</ele>
        <time>2018-02-19T14:34:36.999Z</time>
      </trkpt>
      <trkpt lat="49.50697" lon="3.66135">
        <ele>143.67</ele>
        <time>2018-02-19T14:34:46.999Z</time>
      </trkpt>
      <trkpt lat="49.50708" lon="3.66128">
        <ele>145.21</ele>
        <time>2018-02-19T14:34:56.999Z</time>
      </trkpt>
      <trkpt lat="49.50721" lon="3.66126">
        <ele>147.46</ele>
        <time>2018-02-19T14:35:06.999Z</time>
      </trkpt>
      <trkpt lat="49.5073" lon="3.66121">
        <ele>149.28</ele>
        <time>2018-02-19T14:35:16.999Z</time>
      </trkpt>
      <trkpt lat="49.50741" lon="3.66115">
        <ele>150.76</ele>
        <time>2018-02-19T14:35:26.999Z</time>
      </trkpt>
      <trkpt lat="49.50751" lon="3.66108">
        <ele>150.71</ele>
        <time>2018-02-19T14:35:36.999Z</time>
      </trkpt>
      <trkpt lat="49.50763" lon="3.66107">
        <ele>150.98</ele>
        <time>2018-02-19T14:35:46.999Z</time>
      </trkpt>
      <trkpt lat="49.50771" lon="3.66104">
        <ele>151.22</ele>
        <time>2018-02-19T14:35:56.999Z</time>
      </trkpt>
      <trkpt lat="49.50781" lon="3.66101">
        <ele>150.62</ele>
        <time>2018-02-19T14:36:06.999Z</time>
      </trkpt>
      <trkpt lat="49.50789" lon="3.66098">
        <ele>149.28</ele>
        <time>2018-02-19T14:36:16.999Z</time>
      </trkpt>
      <trkpt lat="49.508" lon="3.66094">
        <ele>148.66</ele>
        <time>2018-02-19T14:36:26.999Z</time>
      </trkpt>
      <trkpt lat="49.50813" lon="3.66095">
        <ele>148.23</ele>
        <time>2018-02-19T14:36:36.999Z</time>
      </trkpt>
      <trkpt lat="49.50823" lon="3.66096">
        <ele>147.33</ele>
        <time>2018-02-19T14:36:46.999Z</time>
      </trkpt>
      <trkpt lat="49.5083" lon="3.66091">
        <ele>146.75</ele>
        <time>2018-02-19T14:36:56.999Z</time>
      </trkpt>
      <trkpt lat="49.50833" lon="3.6609">
        <ele>146.99</ele>
        <time>2018-02-19T14:37:06.000Z</time>
      </trkpt>
      <trkpt lat="49.50837" lon="3.66093">
        <ele>147</ele>
        <time>2018-02-19T14:37:16.000Z</time>
      </trkpt>
      <trkpt lat="49.5084" lon="3.66098">
        <ele>146.46</ele>
        <time>2018-02-19T14:37:26.000Z</time>
      </trkpt>
      <trkpt lat="49.50846" lon="3.66095">
        <ele>144.92</ele>
        <time>2018-02-19T14:37:36.000Z</time>
      </trkpt>
      <trkpt lat="49.50858" lon="3.66098">
        <ele>142.89</ele>
        <time>2018-02-19T14:37:46.000Z</time>
      </trkpt>
      <trkpt lat="49.50867" lon="3.66102">
        <ele>140.69</ele>
        <time>2018-02-19T14:37:56.000Z</time>
      </trkpt>
      <trkpt lat="49.50875" lon="3.66094">
        <ele>139.32</ele>
        <time>2018-02-19T14:38:06.000Z</time>
      </trkpt>
      <trkpt lat="49.50885" lon="3.66097">
        <ele>137.98</ele>
        <time>2018-02-19T14:38:16.000Z</time>
      </trkpt>
      <trkpt lat="49.50895" lon="3.66098">
        <ele>136.37</ele>
        <time>2018-02-19T14:38:26.000Z</time>
      </trkpt>
      <trkpt lat="49.50904" lon="3.661">
        <ele>135.02</ele>
        <time>2018-02-19T14:38:36.000Z</time>
      </trkpt>
      <trkpt lat="49.50914" lon="3.66112">
        <ele>133.44</ele>
        <time>2018-02-19T14:38:46.000Z</time>
      </trkpt>
      <trkpt lat="49.50925" lon="3.66124">
        <ele>130.67</ele>
        <time>2018-02-19T14:38:56.000Z</time>
      </trkpt>
      <trkpt lat="49.50941" lon="3.66116">
        <ele>126.28</ele>
        <time>2018-02-19T14:39:06.000Z</time>
      </trkpt>
      <trkpt lat="49.50952" lon="3.66109">
        <ele>122.85</ele>
        <time>2018-02-19T14:39:16.000Z</time>
      </trkpt>
      <trkpt lat="49.50965" lon="3.6611">
        <ele>120.5</ele>
        <time>2018-02-19T14:39:26.000Z</time>
      </trkpt>
      <trkpt lat="49.50977" lon="3.66107">
        <ele>119.07</ele>
        <time>2018-02-19T14:39:36.000Z</time>
      </trkpt>
      <trkpt lat="49.50988" lon="3.66105">
        <ele>118.46</ele>
        <time>2018-02-19T14:39:46.000Z</time>
      </trkpt>
      <trkpt lat="49.51" lon="3.66098">
        <ele>119.2</ele>
        <time>2018-02-19T14:39:56.000Z</time>
      </trkpt>
      <trkpt lat="49.51007" lon="3.66093">
        <ele>120.69</ele>
        <time>2018-02-19T14:40:06.000Z</time>
      </trkpt>
      <trkpt lat="49.51019" lon="3.66084">
        <ele>123.58</ele>
        <time>2018-02-19T14:40:16.000Z</time>
      </trkpt>
      <trkpt lat="49.51027" lon="3.66075">
        <ele>126.36</ele>
        <time>2018-02-19T14:40:26.000Z</time>
      </trkpt>
      <trkpt lat="49.51037" lon="3.66065">
        <ele>128.82</ele>
        <time>2018-02-19T14:40:36.000Z</time>
      </trkpt>
      <trkpt lat="49.51047" lon="3.66057">
        <ele>130.82</ele>
        <time>2018-02-19T14:40:46.000Z</time>
      </trkpt>
      <trkpt lat="49.51058" lon="3.66051">
        <ele>132.12</ele>
        <time>2018-02-19T14:40:56.000Z</time>
      </trkpt>
      <trkpt lat="49.5107" lon="3.66041">
        <ele>133.15</ele>
        <time>2018-02-19T14:41:06.000Z</time>
      </trkpt>
      <trkpt lat="49.51078" lon="3.66036">
        <ele>132.77</ele>
        <time>2018-02-19T14:41:16.000Z</time>
      </trkpt>
      <trkpt lat="49.51087" lon="3.66032">
        <ele>131.92</ele>
        <time>2018-02-19T14:41:26.000Z</time>
      </trkpt>
      <trkpt lat="49.51098" lon="3.66032">
        <ele>131.9</ele>
        <time>2018-02-19T14:41:36.000Z</time>
      </trkpt>
      <trkpt lat="49.51107" lon="3.66035">
        <ele>131.76</ele>
        <time>2018-02-19T14:41:46.000Z</time>
      </trkpt>
      <trkpt lat="49.51117" lon="3.66035">
        <ele>131.65</ele>
        <time>2018-02-19T14:41:56.000Z</time>
      </trkpt>
      <trkpt lat="49.5113" lon="3.66032">
        <ele>131.69</ele>
        <time>2018-02-19T14:42:06.000Z</time>
      </trkpt>
      <trkpt lat="49.51142" lon="3.66032">
        <ele>131.47</ele>
        <time>2018-02-19T14:42:16.000Z</time>
      </trkpt>
      <trkpt lat="49.51153" lon="3.6603">
        <ele>130.85</ele>
        <time>2018-02-19T14:42:26.000Z</time>
      </trkpt>
      <trkpt lat="49.51166" lon="3.66029">
        <ele>130.41</ele>
        <time>2018-02-19T14:42:36.000Z</time>
      </trkpt>
      <trkpt lat="49.51177" lon="3.66028">
        <ele>129.95</ele>
        <time>2018-02-19T14:42:46.000Z</time>
      </trkpt>
      <trkpt lat="49.51185" lon="3.6602">
        <ele>130.44</ele>
        <time>2018-02-19T14:42:56.000Z</time>
      </trkpt>
      <trkpt lat="49.51195" lon="3.66015">
        <ele>131.3</ele>
        <time>2018-02-19T14:43:06.000Z</time>
      </trkpt>
      <trkpt lat="49.51208" lon="3.66016">
        <ele>132.51</ele>
        <time>2018-02-19T14:43:16.000Z</time>
      </trkpt>
      <trkpt lat="49.51221" lon="3.6602">
        <ele>133.48</ele>
        <time>2018-02-19T14:43:26.000Z</time>
      </trkpt>
      <trkpt lat="49.5123" lon="3.66022">
        <ele>133.85</ele>
        <time>2018-02-19T14:43:36.000Z</time>
      </trkpt>
      <trkpt lat="49.51237" lon="3.66023">
        <ele>133.6</ele>
        <time>2018-02-19T14:43:46.000Z</time>
      </trkpt>
      <trkpt lat="49.51246" lon="3.6602">
        <ele>133.84</ele>
        <time>2018-02-19T14:43:56.000Z</time>
      </trkpt>
      <trkpt lat="49.51259" lon="3.66016">
        <ele>133.85</ele>
        <time>2018-02-19T14:44:06.000Z</time>
      </trkpt>
      <trkpt lat="49.51269" lon="3.6601">
        <ele>134.44</ele>
        <time>2018-02-19T14:44:16.000Z</time>
      </trkpt>
      <trkpt lat="49.51283" lon="3.66004">
        <ele>134.73</ele>
        <time>2018-02-19T14:44:26.000Z</time>
      </trkpt>
      <trkpt lat="49.51296" lon="3.66">
        <ele>135.95</ele>
        <time>2018-02-19T14:44:36.000Z</time>
      </trkpt>
      <trkpt lat="49.51311" lon="3.65995">
        <ele>136.99</ele>
        <time>2018-02-19T14:44:46.000Z</time>
      </trkpt>
      <trkpt lat="49.51328" lon="3.65989">
        <ele>137.51</ele>
        <time>2018-02-19T14:44:56.000Z</time>
      </trkpt>
      <trkpt lat="49.51337" lon="3.65984">
        <ele>137.81</ele>
        <time>2018-02-19T14:45:06.000Z</time>
      </trkpt>
      <trkpt lat="49.51347" lon="3.65977">
        <ele>138.06</ele>
        <time>2018-02-19T14:45:16.000Z</time>
      </trkpt>
      <trkpt lat="49.51356" lon="3.6597">
        <ele>137.38</ele>
        <time>2018-02-19T14:45:26.000Z</time>
      </trkpt>
      <trkpt lat="49.51365" lon="3.65962">
        <ele>135.94</ele>
        <time>2018-02-19T14:45:36.000Z</time>
      </trkpt>
      <trkpt lat="49.51375" lon="3.65955">
        <ele>134.53</ele>
        <time>2018-02-19T14:45:46.000Z</time>
      </trkpt>
      <trkpt lat="49.51377" lon="3.6595">
        <ele>134.26</ele>
        <time>2018-02-19T14:45:56.000Z</time>
      </trkpt>
      <trkpt lat="49.51376" lon="3.65949">
        <ele>133.91</ele>
        <time>2018-02-19T14:46:09.000Z</time>
      </trkpt>
      <trkpt lat="49.51375" lon="3.65949">
        <ele>133.69</ele>
        <time>2018-02-19T14:46:19.000Z</time>
      </trkpt>
      <trkpt lat="49.51374" lon="3.65948">
        <ele>133.55</ele>
        <time>2018-02-19T14:46:29.000Z</time>
      </trkpt>
      <trkpt lat="49.51373" lon="3.65948">
        <ele>133.44</ele>
        <time>2018-02-19T14:46:49.000Z</time>
      </trkpt>
      <trkpt lat="49.51372" lon="3.65948">
        <ele>133.68</ele>
        <time>2018-02-19T14:47:18.000Z</time>
      </trkpt>
      <trkpt lat="49.51372" lon="3.65948">
        <ele>134.82</ele>
        <time>2018-02-19T14:47:51.000Z</time>
      </trkpt>
      <trkpt lat="49.51371" lon="3.65947">
        <ele>135.35</ele>
        <time>2018-02-19T14:48:04.000Z</time>
      </trkpt>
      <trkpt lat="49.51368" lon="3.65947">
        <ele>136.6</ele>
        <time>2018-02-19T14:48:14.000Z</time>
      </trkpt>
      <trkpt lat="49.51369" lon="3.65948">
        <ele>137.01</ele>
        <time>2018-02-19T14:48:29.000Z</time>
      </trkpt>
      <trkpt lat="49.51369" lon="3.6595">
        <ele>137.26</ele>
        <time>2018-02-19T14:48:39.000Z</time>
      </trkpt>
      <trkpt lat="49.51367" lon="3.65949">
        <ele>137.43</ele>
        <time>2018-02-19T14:48:49.000Z</time>
      </trkpt>
      <trkpt lat="49.51366" lon="3.65948">
        <ele>137.69</ele>
        <time>2018-02-19T14:49:03.000Z</time>
      </trkpt>
      <trkpt lat="49.51365" lon="3.6594">
        <ele>137.59</ele>
        <time>2018-02-19T14:49:13.000Z</time>
      </trkpt>
      <trkpt lat="49.51367" lon="3.6594">
        <ele>137.52</ele>
        <time>2018-02-19T14:49:23.000Z</time>
      </trkpt>
      <trkpt lat="49.51366" lon="3.6594">
        <ele>137.5</ele>
        <time>2018-02-19T14:49:42.000Z</time>
      </trkpt>
      <trkpt lat="49.51369" lon="3.65938">
        <ele>137.16</ele>
        <time>2018-02-19T14:49:52.000Z</time>
      </trkpt>
      <trkpt lat="49.51371" lon="3.65927">
        <ele>135.15</ele>
        <time>2018-02-19T14:50:02.000Z</time>
      </trkpt>
      <trkpt lat="49.51374" lon="3.65918">
        <ele>132.06</ele>
        <time>2018-02-19T14:50:12.000Z</time>
      </trkpt>
      <trkpt lat="49.51377" lon="3.65918">
        <ele>129.82</ele>
        <time>2018-02-19T14:50:22.000Z</time>
      </trkpt>
      <trkpt lat="49.51384" lon="3.65911">
        <ele>124.79</ele>
        <time>2018-02-19T14:50:32.000Z</time>
      </trkpt>
      <trkpt lat="49.51391" lon="3.65902">
        <ele>121</ele>
        <time>2018-02-19T14:50:42.000Z</time>
      </trkpt>
      <trkpt lat="49.51395" lon="3.659">
        <ele>115.3</ele>
        <time>2018-02-19T14:50:52.000Z</time>
      </trkpt>
      <trkpt lat="49.51398" lon="3.6589">
        <ele>108.8</ele>
        <time>2018-02-19T14:51:02.000Z</time>
      </trkpt>
      <trkpt lat="49.51403" lon="3.65875">
        <ele>104.27</ele>
        <time>2018-02-19T14:51:12.000Z</time>
      </trkpt>
      <trkpt lat="49.51412" lon="3.65866">
        <ele>102.18</ele>
        <time>2018-02-19T14:51:22.000Z</time>
      </trkpt>
      <trkpt lat="49.51422" lon="3.65857">
        <ele>100.73</ele>
        <time>2018-02-19T14:51:32.000Z</time>
      </trkpt>
      <trkpt lat="49.51431" lon="3.65839">
        <ele>100.91</ele>
        <time>2018-02-19T14:51:42.000Z</time>
      </trkpt>
      <trkpt lat="49.51438" lon="3.65827">
        <ele>101.78</ele>
        <time>2018-02-19T14:51:52.000Z</time>
      </trkpt>
      <trkpt lat="49.51443" lon="3.65818">
        <ele>104.14</ele>
        <time>2018-02-19T14:52:02.000Z</time>
      </trkpt>
      <trkpt lat="49.51452" lon="3.65805">
        <ele>107.55</ele>
        <time>2018-02-19T14:52:12.000Z</time>
      </trkpt>
      <trkpt lat="49.51459" lon="3.65792">
        <ele>111.04</ele>
        <time>2018-02-19T14:52:22.000Z</time>
      </trkpt>
      <trkpt lat="49.51464" lon="3.65782">
        <ele>113.83</ele>
        <time>2018-02-19T14:52:32.000Z</time>
      </trkpt>
      <trkpt lat="49.5147" lon="3.65771">
        <ele>114.96</ele>
        <time>2018-02-19T14:52:42.000Z</time>
      </trkpt>
      <trkpt lat="49.5148" lon="3.65757">
        <ele>115.8</ele>
        <time>2018-02-19T14:52:52.000Z</time>
      </trkpt>
      <trkpt lat="49.51485" lon="3.65744">
        <ele>116.22</ele>
        <time>2018-02-19T14:53:02.000Z</time>
      </trkpt>
      <trkpt lat="49.51489" lon="3.65731">
        <ele>116.45</ele>
        <time>2018-02-19T14:53:12.000Z</time>
      </trkpt>
      <trkpt lat="49.51494" lon="3.65715">
        <ele>115.85</ele>
        <time>2018-02-19T14:53:22.000Z</time>
      </trkpt>
      <trkpt lat="49.51497" lon="3.65708">
        <ele>115.4</ele>
        <time>2018-02-19T14:53:32.000Z</time>
      </trkpt>
      <trkpt lat="49.51501" lon="3.65695">
        <ele>115.23</ele>
        <time>2018-02-19T14:53:42.000Z</time>
      </trkpt>
      <trkpt lat="49.51506" lon="3.65674">
        <ele>115.61</ele>
        <time>2018-02-19T14:53:52.000Z</time>
      </trkpt>
      <trkpt lat="49.51509" lon="3.65656">
        <ele>116.06</ele>
        <time>2018-02-19T14:54:02.000Z</time>
      </trkpt>
      <trkpt lat="49.51512" lon="3.65641">
        <ele>116.78</ele>
        <time>2018-02-19T14:54:12.000Z</time>
      </trkpt>
      <trkpt lat="49.51514" lon="3.6563">
        <ele>117.27</ele>
        <time>2018-02-19T14:54:22.000Z</time>
      </trkpt>
      <trkpt lat="49.51515" lon="3.65626">
        <ele>117.64</ele>
        <time>2018-02-19T14:54:32.000Z</time>
      </trkpt>
      <trkpt lat="49.51517" lon="3.65624">
        <ele>117.54</ele>
        <time>2018-02-19T14:54:42.000Z</time>
      </trkpt>
      <trkpt lat="49.51521" lon="3.65621">
        <ele>116.99</ele>
        <time>2018-02-19T14:54:52.000Z</time>
      </trkpt>
      <trkpt lat="49.51531" lon="3.65609">
        <ele>113.92</ele>
        <time>2018-02-19T14:55:02.000Z</time>
      </trkpt>
      <trkpt lat="49.51546" lon="3.65601">
        <ele>110.72</ele>
        <time>2018-02-19T14:55:12.000Z</time>
      </trkpt>
      <trkpt lat="49.5155" lon="3.65589">
        <ele>107.67</ele>
        <time>2018-02-19T14:55:22.000Z</time>
      </trkpt>
      <trkpt lat="49.51554" lon="3.65581">
        <ele>106.23</ele>
        <time>2018-02-19T14:55:32.000Z</time>
      </trkpt>
      <trkpt lat="49.51558" lon="3.65571">
        <ele>104.73</ele>
        <time>2018-02-19T14:55:42.000Z</time>
      </trkpt>
      <trkpt lat="49.51566" lon="3.65562">
        <ele>104.23</ele>
        <time>2018-02-19T14:55:52.000Z</time>
      </trkpt>
      <trkpt lat="49.5157" lon="3.65557">
        <ele>104.11</ele>
        <time>2018-02-19T14:56:02.000Z</time>
      </trkpt>
      <trkpt lat="49.51576" lon="3.65554">
        <ele>103.47</ele>
        <time>2018-02-19T14:56:12.000Z</time>
      </trkpt>
      <trkpt lat="49.5158" lon="3.65552">
        <ele>103.04</ele>
        <time>2018-02-19T14:56:22.000Z</time>
      </trkpt>
      <trkpt lat="49.51583" lon="3.65544">
        <ele>100.88</ele>
        <time>2018-02-19T14:56:32.000Z</time>
      </trkpt>
      <trkpt lat="49.51591" lon="3.65535">
        <ele>99.3</ele>
        <time>2018-02-19T14:56:42.000Z</time>
      </trkpt>
      <trkpt lat="49.51596" lon="3.65532">
        <ele>98.41</ele>
        <time>2018-02-19T14:56:52.000Z</time>
      </trkpt>
      <trkpt lat="49.51599" lon="3.65523">
        <ele>96.83</ele>
        <time>2018-02-19T14:57:02.000Z</time>
      </trkpt>
      <trkpt lat="49.51605" lon="3.6552">
        <ele>95.64</ele>
        <time>2018-02-19T14:57:12.000Z</time>
      </trkpt>
      <trkpt lat="49.51612" lon="3.65516">
        <ele>94.29</ele>
        <time>2018-02-19T14:57:22.000Z</time>
      </trkpt>
      <trkpt lat="49.51629" lon="3.65509">
        <ele>92.01</ele>
        <time>2018-02-19T14:57:32.000Z</time>
      </trkpt>
      <trkpt lat="49.51649" lon="3.65501">
        <ele>92.14</ele>
        <time>2018-02-19T14:57:42.000Z</time>
      </trkpt>
      <trkpt lat="49.51652" lon="3.65486">
        <ele>93.64</ele>
        <time>2018-02-19T14:57:52.000Z</time>
      </trkpt>
      <trkpt lat="49.51648" lon="3.6547">
        <ele>93.99</ele>
        <time>2018-02-19T14:58:01.999Z</time>
      </trkpt>
      <trkpt lat="49.51644" lon="3.6545">
        <ele>93.3</ele>
        <time>2018-02-19T14:58:11.999Z</time>
      </trkpt>
      <trkpt lat="49.5164" lon="3.65429">
        <ele>92.74</ele>
        <time>2018-02-19T14:58:21.999Z</time>
      </trkpt>
      <trkpt lat="49.51636" lon="3.65413">
        <ele>93.15</ele>
        <time>2018-02-19T14:58:31.999Z</time>
      </trkpt>
      <trkpt lat="49.51628" lon="3.65395">
        <ele>94.18</ele>
        <time>2018-02-19T14:58:41.999Z</time>
      </trkpt>
      <trkpt lat="49.51622" lon="3.65378">
        <ele>95.66</ele>
        <time>2018-02-19T14:58:51.999Z</time>
      </trkpt>
      <trkpt lat="49.51615" lon="3.65366">
        <ele>97.05</ele>
        <time>2018-02-19T14:59:01.999Z</time>
      </trkpt>
      <trkpt lat="49.51608" lon="3.6535">
        <ele>98.58</ele>
        <time>2018-02-19T14:59:11.999Z</time>
      </trkpt>
      <trkpt lat="49.51601" lon="3.65339">
        <ele>99.67</ele>
        <time>2018-02-19T14:59:21.999Z</time>
      </trkpt>
      <trkpt lat="49.51596" lon="3.65321">
        <ele>100.5</ele>
        <time>2018-02-19T14:59:31.999Z</time>
      </trkpt>
      <trkpt lat="49.51591" lon="3.653">
        <ele>101</ele>
        <time>2018-02-19T14:59:41.999Z</time>
      </trkpt>
      <trkpt lat="49.51587" lon="3.65285">
        <ele>101.75</ele>
        <time>2018-02-19T14:59:51.999Z</time>
      </trkpt>
      <trkpt lat="49.51581" lon="3.65273">
        <ele>102.53</ele>
        <time>2018-02-19T15:00:01.999Z</time>
      </trkpt>
      <trkpt lat="49.51575" lon="3.65263">
        <ele>103.42</ele>
        <time>2018-02-19T15:00:11.999Z</time>
      </trkpt>
      <trkpt lat="49.51568" lon="3.65251">
        <ele>104.1</ele>
        <time>2018-02-19T15:00:21.999Z</time>
      </trkpt>
      <trkpt lat="49.51563" lon="3.65237">
        <ele>104.05</ele>
        <time>2018-02-19T15:00:31.999Z</time>
      </trkpt>
      <trkpt lat="49.51558" lon="3.65222">
        <ele>103.49</ele>
        <time>2018-02-19T15:00:41.999Z</time>
      </trkpt>
      <trkpt lat="49.51554" lon="3.65206">
        <ele>102.92</ele>
        <time>2018-02-19T15:00:51.999Z</time>
      </trkpt>
      <trkpt lat="49.5155" lon="3.65183">
        <ele>102.22</ele>
        <time>2018-02-19T15:01:01.999Z</time>
      </trkpt>
      <trkpt lat="49.51546" lon="3.65165">
        <ele>101.93</ele>
        <time>2018-02-19T15:01:11.999Z</time>
      </trkpt>
      <trkpt lat="49.51541" lon="3.6515">
        <ele>101.94</ele>
        <time>2018-02-19T15:01:21.999Z</time>
      </trkpt>
      <trkpt lat="49.51534" lon="3.65127">
        <ele>102.07</ele>
        <time>2018-02-19T15:01:31.999Z</time>
      </trkpt>
      <trkpt lat="49.51529" lon="3.65109">
        <ele>102.38</ele>
        <time>2018-02-19T15:01:41.999Z</time>
      </trkpt>
      <trkpt lat="49.51523" lon="3.65091">
        <ele>102.74</ele>
        <time>2018-02-19T15:01:51.999Z</time>
      </trkpt>
      <trkpt lat="49.51517" lon="3.65078">
        <ele>103.06</ele>
        <time>2018-02-19T15:02:01.999Z</time>
      </trkpt>
      <trkpt lat="49.51511" lon="3.65064">
        <ele>102.97</ele>
        <time>2018-02-19T15:02:11.999Z</time>
      </trkpt>
      <trkpt lat="49.51504" lon="3.65052">
        <ele>102.75</ele>
        <time>2018-02-19T15:02:21.999Z</time>
      </trkpt>
      <trkpt lat="49.51494" lon="3.65037">
        <ele>102.98</ele>
        <time>2018-02-19T15:02:31.999Z</time>
      </trkpt>
      <trkpt lat="49.51485" lon="3.65022">
        <ele>103.6</ele>
        <time>2018-02-19T15:02:41.999Z</time>
      </trkpt>
      <trkpt lat="49.51476" lon="3.65009">
        <ele>104.74</ele>
        <time>2018-02-19T15:02:51.999Z</time>
      </trkpt>
      <trkpt lat="49.51473" lon="3.64991">
        <ele>106.3</ele>
        <time>2018-02-19T15:03:01.999Z</time>
      </trkpt>
      <trkpt lat="49.51479" lon="3.6498">
        <ele>107.09</ele>
        <time>2018-02-19T15:03:11.999Z</time>
      </trkpt>
      <trkpt lat="49.51488" lon="3.64971">
        <ele>106.37</ele>
        <time>2018-02-19T15:03:21.999Z</time>
      </trkpt>
      <trkpt lat="49.51497" lon="3.64965">
        <ele>104.9</ele>
        <time>2018-02-19T15:03:31.999Z</time>
      </trkpt>
      <trkpt lat="49.51509" lon="3.64957">
        <ele>103.2</ele>
        <time>2018-02-19T15:03:41.999Z</time>
      </trkpt>
      <trkpt lat="49.51522" lon="3.6495">
        <ele>101.78</ele>
        <time>2018-02-19T15:03:51.999Z</time>
      </trkpt>
      <trkpt lat="49.51534" lon="3.64955">
        <ele>100.83</ele>
        <time>2018-02-19T15:04:01.999Z</time>
      </trkpt>
      <trkpt lat="49.51544" lon="3.64967">
        <ele>100.75</ele>
        <time>2018-02-19T15:04:11.999Z</time>
      </trkpt>
      <trkpt lat="49.51553" lon="3.64979">
        <ele>100.63</ele>
        <time>2018-02-19T15:04:21.999Z</time>
      </trkpt>
      <trkpt lat="49.51562" lon="3.64989">
        <ele>100.27</ele>
        <time>2018-02-19T15:04:31.999Z</time>
      </trkpt>
      <trkpt lat="49.51574" lon="3.65">
        <ele>100.06</ele>
        <time>2018-02-19T15:04:41.999Z</time>
      </trkpt>
      <trkpt lat="49.51585" lon="3.65012">
        <ele>99.79</ele>
        <time>2018-02-19T15:04:51.999Z</time>
      </trkpt>
      <trkpt lat="49.51595" lon="3.65024">
        <ele>99.84</ele>
        <time>2018-02-19T15:05:01.999Z</time>
      </trkpt>
      <trkpt lat="49.51603" lon="3.65035">
        <ele>99.15</ele>
        <time>2018-02-19T15:05:11.999Z</time>
      </trkpt>
      <trkpt lat="49.51611" lon="3.65051">
        <ele>98.12</ele>
        <time>2018-02-19T15:05:21.999Z</time>
      </trkpt>
      <trkpt lat="49.51614" lon="3.65069">
        <ele>97.55</ele>
        <time>2018-02-19T15:05:31.999Z</time>
      </trkpt>
      <trkpt lat="49.51618" lon="3.65086">
        <ele>97.18</ele>
        <time>2018-02-19T15:05:41.999Z</time>
      </trkpt>
      <trkpt lat="49.51623" lon="3.65104">
        <ele>96.48</ele>
        <time>2018-02-19T15:05:51.999Z</time>
      </trkpt>
      <trkpt lat="49.5163" lon="3.65123">
        <ele>94.94</ele>
        <time>2018-02-19T15:06:01.999Z</time>
      </trkpt>
      <trkpt lat="49.51635" lon="3.65143">
        <ele>92.54</ele>
        <time>2018-02-19T15:06:11.999Z</time>
      </trkpt>
      <trkpt lat="49.51639" lon="3.65162">
        <ele>90.2</ele>
        <time>2018-02-19T15:06:21.999Z</time>
      </trkpt>
      <trkpt lat="49.51644" lon="3.65176">
        <ele>88.17</ele>
        <time>2018-02-19T15:06:31.999Z</time>
      </trkpt>
      <trkpt lat="49.5165" lon="3.6519">
        <ele>86.89</ele>
        <time>2018-02-19T15:06:41.999Z</time>
      </trkpt>
      <trkpt lat="49.51658" lon="3.65206">
        <ele>85.92</ele>
        <time>2018-02-19T15:06:51.999Z</time>
      </trkpt>
      <trkpt lat="49.51663" lon="3.65219">
        <ele>85.83</ele>
        <time>2018-02-19T15:07:01.999Z</time>
      </trkpt>
      <trkpt lat="49.51667" lon="3.65234">
        <ele>85.58</ele>
        <time>2018-02-19T15:07:11.999Z</time>
      </trkpt>
      <trkpt lat="49.51672" lon="3.65245">
        <ele>84.99</ele>
        <time>2018-02-19T15:07:21.999Z</time>
      </trkpt>
      <trkpt lat="49.51678" lon="3.65259">
        <ele>84.22</ele>
        <time>2018-02-19T15:07:31.999Z</time>
      </trkpt>
      <trkpt lat="49.51683" lon="3.65269">
        <ele>83.47</ele>
        <time>2018-02-19T15:07:41.999Z</time>
      </trkpt>
      <trkpt lat="49.51696" lon="3.65278">
        <ele>84.02</ele>
        <time>2018-02-19T15:07:51.999Z</time>
      </trkpt>
      <trkpt lat="49.51703" lon="3.65289">
        <ele>84.08</ele>
        <time>2018-02-19T15:08:01.999Z</time>
      </trkpt>
      <trkpt lat="49.51711" lon="3.6529">
        <ele>84.06</ele>
        <time>2018-02-19T15:08:11.999Z</time>
      </trkpt>
      <trkpt lat="49.51721" lon="3.65282">
        <ele>84.3</ele>
        <time>2018-02-19T15:08:21.999Z</time>
      </trkpt>
      <trkpt lat="49.51727" lon="3.65278">
        <ele>84.45</ele>
        <time>2018-02-19T15:08:31.999Z</time>
      </trkpt>
      <trkpt lat="49.51737" lon="3.65273">
        <ele>84.22</ele>
        <time>2018-02-19T15:08:41.999Z</time>
      </trkpt>
      <trkpt lat="49.51742" lon="3.65271">
        <ele>84.58</ele>
        <time>2018-02-19T15:08:51.999Z</time>
      </trkpt>
      <trkpt lat="49.51743" lon="3.65273">
        <ele>85.65</ele>
        <time>2018-02-19T15:09:01.999Z</time>
      </trkpt>
      <trkpt lat="49.51743" lon="3.65269">
        <ele>86.33</ele>
        <time>2018-02-19T15:09:11.999Z</time>
      </trkpt>
      <trkpt lat="49.51743" lon="3.65249">
        <ele>87.38</ele>
        <time>2018-02-19T15:09:21.999Z</time>
      </trkpt>
      <trkpt lat="49.51753" lon="3.65243">
        <ele>87.57</ele>
        <time>2018-02-19T15:09:31.999Z</time>
      </trkpt>
      <trkpt lat="49.51763" lon="3.65234">
        <ele>86.91</ele>
        <time>2018-02-19T15:09:41.999Z</time>
      </trkpt>
      <trkpt lat="49.51773" lon="3.65227">
        <ele>85.46</ele>
        <time>2018-02-19T15:09:51.999Z</time>
      </trkpt>
      <trkpt lat="49.51781" lon="3.65217">
        <ele>84.44</ele>
        <time>2018-02-19T15:10:01.999Z</time>
      </trkpt>
      <trkpt lat="49.51786" lon="3.65207">
        <ele>82.71</ele>
        <time>2018-02-19T15:10:11.999Z</time>
      </trkpt>
      <trkpt lat="49.51793" lon="3.65199">
        <ele>79.69</ele>
        <time>2018-02-19T15:10:21.999Z</time>
      </trkpt>
      <trkpt lat="49.51802" lon="3.65187">
        <ele>76.93</ele>
        <time>2018-02-19T15:10:31.999Z</time>
      </trkpt>
      <trkpt lat="49.51815" lon="3.65173">
        <ele>75.76</ele>
        <time>2018-02-19T15:10:41.999Z</time>
      </trkpt>
      <trkpt lat="49.51826" lon="3.65158">
        <ele>74.85</ele>
        <time>2018-02-19T15:10:51.999Z</time>
      </trkpt>
      <trkpt lat="49.51839" lon="3.6516">
        <ele>74.47</ele>
        <time>2018-02-19T15:11:01.999Z</time>
      </trkpt>
      <trkpt lat="49.51854" lon="3.65173">
        <ele>74.53</ele>
        <time>2018-02-19T15:11:11.999Z</time>
      </trkpt>
      <trkpt lat="49.51864" lon="3.65186">
        <ele>74.73</ele>
        <time>2018-02-19T15:11:21.999Z</time>
      </trkpt>
      <trkpt lat="49.51874" lon="3.65193">
        <ele>75.67</ele>
        <time>2018-02-19T15:11:31.999Z</time>
      </trkpt>
      <trkpt lat="49.51881" lon="3.65195">
        <ele>76.89</ele>
        <time>2018-02-19T15:11:41.999Z</time>
      </trkpt>
      <trkpt lat="49.51882" lon="3.65195">
        <ele>77.2</ele>
        <time>2018-02-19T15:11:51.999Z</time>
      </trkpt>
      <trkpt lat="49.51887" lon="3.65197">
        <ele>77.55</ele>
        <time>2018-02-19T15:12:01.999Z</time>
      </trkpt>
      <trkpt lat="49.51885" lon="3.65198">
        <ele>77.76</ele>
        <time>2018-02-19T15:12:17.999Z</time>
      </trkpt>
      <trkpt lat="49.51884" lon="3.65195">
        <ele>78.32</ele>
        <time>2018-02-19T15:12:27.999Z</time>
      </trkpt>
      <trkpt lat="49.51883" lon="3.65195">
        <ele>78.53</ele>
        <time>2018-02-19T15:12:38.999Z</time>
      </trkpt>
      <trkpt lat="49.51882" lon="3.65194">
        <ele>78.98</ele>
        <time>2018-02-19T15:13:03.999Z</time>
      </trkpt>
      <trkpt lat="49.51882" lon="3.65193">
        <ele>79.76</ele>
        <time>2018-02-19T15:13:29.999Z</time>
      </trkpt>
      <trkpt lat="49.51881" lon="3.65192">
        <ele>80.1</ele>
        <time>2018-02-19T15:13:39.999Z</time>
      </trkpt>
      <trkpt lat="49.5188" lon="3.65192">
        <ele>80.5</ele>
        <time>2018-02-19T15:13:56.999Z</time>
      </trkpt>
      <trkpt lat="49.51882" lon="3.65195">
        <ele>80.69</ele>
        <time>2018-02-19T15:14:06.999Z</time>
      </trkpt>
      <trkpt lat="49.51883" lon="3.65196">
        <ele>81.05</ele>
        <time>2018-02-19T15:14:29.999Z</time>
      </trkpt>
      <trkpt lat="49.51882" lon="3.65195">
        <ele>81.18</ele>
        <time>2018-02-19T15:14:57.999Z</time>
      </trkpt>
      <trkpt lat="49.51883" lon="3.65197">
        <ele>81.41</ele>
        <time>2018-02-19T15:15:07.999Z</time>
      </trkpt>
      <trkpt lat="49.51886" lon="3.65204">
        <ele>81.86</ele>
        <time>2018-02-19T15:15:17.999Z</time>
      </trkpt>
      <trkpt lat="49.51894" lon="3.65208">
        <ele>82.61</ele>
        <time>2018-02-19T15:15:27.999Z</time>
      </trkpt>
      <trkpt lat="49.51908" lon="3.65221">
        <ele>83.27</ele>
        <time>2018-02-19T15:15:37.999Z</time>
      </trkpt>
      <trkpt lat="49.51916" lon="3.65228">
        <ele>84.75</ele>
        <time>2018-02-19T15:15:47.999Z</time>
      </trkpt>
      <trkpt lat="49.51924" lon="3.6524">
        <ele>86.98</ele>
        <time>2018-02-19T15:15:57.999Z</time>
      </trkpt>
      <trkpt lat="49.51934" lon="3.65249">
        <ele>88.99</ele>
        <time>2018-02-19T15:16:07.999Z</time>
      </trkpt>
      <trkpt lat="49.5194" lon="3.65259">
        <ele>90.53</ele>
        <time>2018-02-19T15:16:17.999Z</time>
      </trkpt>
      <trkpt lat="49.51947" lon="3.65269">
        <ele>91.07</ele>
        <time>2018-02-19T15:16:27.999Z</time>
      </trkpt>
      <trkpt lat="49.51955" lon="3.65281">
        <ele>90.87</ele>
        <time>2018-02-19T15:16:37.999Z</time>
      </trkpt>
      <trkpt lat="49.51962" lon="3.65294">
        <ele>90.55</ele>
        <time>2018-02-19T15:16:47.999Z</time>
      </trkpt>
      <trkpt lat="49.51961" lon="3.65309">
        <ele>90.12</ele>
        <time>2018-02-19T15:16:57.999Z</time>
      </trkpt>
      <trkpt lat="49.5196" lon="3.65316">
        <ele>89.78</ele>
        <time>2018-02-19T15:17:07.999Z</time>
      </trkpt>
      <trkpt lat="49.5196" lon="3.65329">
        <ele>89.54</ele>
        <time>2018-02-19T15:17:17.999Z</time>
      </trkpt>
      <trkpt lat="49.51963" lon="3.65346">
        <ele>88.68</ele>
        <time>2018-02-19T15:17:27.999Z</time>
      </trkpt>
      <trkpt lat="49.5197" lon="3.65362">
        <ele>87.68</ele>
        <time>2018-02-19T15:17:37.999Z</time>
      </trkpt>
      <trkpt lat="49.51975" lon="3.65375">
        <ele>86.96</ele>
        <time>2018-02-19T15:17:47.999Z</time>
      </trkpt>
      <trkpt lat="49.51981" lon="3.65384">
        <ele>86.09</ele>
        <time>2018-02-19T15:17:57.999Z</time>
      </trkpt>
      <trkpt lat="49.51988" lon="3.654">
        <ele>85.07</ele>
        <time>2018-02-19T15:18:07.999Z</time>
      </trkpt>
      <trkpt lat="49.51996" lon="3.65417">
        <ele>84.7</ele>
        <time>2018-02-19T15:18:17.999Z</time>
      </trkpt>
      <trkpt lat="49.52004" lon="3.65433">
        <ele>84.96</ele>
        <time>2018-02-19T15:18:27.999Z</time>
      </trkpt>
      <trkpt lat="49.52012" lon="3.65446">
        <ele>85.36</ele>
        <time>2018-02-19T15:18:37.999Z</time>
      </trkpt>
      <trkpt lat="49.52017" lon="3.65462">
        <ele>85.24</ele>
        <time>2018-02-19T15:18:47.999Z</time>
      </trkpt>
      <trkpt lat="49.52023" lon="3.65477">
        <ele>84.53</ele>
        <time>2018-02-19T15:18:57.999Z</time>
      </trkpt>
      <trkpt lat="49.52027" lon="3.65484">
        <ele>84.07</ele>
        <time>2018-02-19T15:19:07.000Z</time>
      </trkpt>
      <trkpt lat="49.52033" lon="3.65501">
        <ele>83.67</ele>
        <time>2018-02-19T15:19:17.000Z</time>
      </trkpt>
      <trkpt lat="49.52039" lon="3.65519">
        <ele>83.93</ele>
        <time>2018-02-19T15:19:27.000Z</time>
      </trkpt>
      <trkpt lat="49.52042" lon="3.65534">
        <ele>84.65</ele>
        <time>2018-02-19T15:19:37.000Z</time>
      </trkpt>
      <trkpt lat="49.52046" lon="3.6555">
        <ele>86.12</ele>
        <time>2018-02-19T15:19:47.000Z</time>
      </trkpt>
      <trkpt lat="49.52053" lon="3.65552">
        <ele>87.71</ele>
        <time>2018-02-19T15:19:57.000Z</time>
      </trkpt>
      <trkpt lat="49.52063" lon="3.65546">
        <ele>88.94</ele>
        <time>2018-02-19T15:20:07.000Z</time>
      </trkpt>
      <trkpt lat="49.52075" lon="3.65537">
        <ele>90.11</ele>
        <time>2018-02-19T15:20:17.000Z</time>
      </trkpt>
      <trkpt lat="49.52085" lon="3.6553">
        <ele>90.84</ele>
        <time>2018-02-19T15:20:27.000Z</time>
      </trkpt>
      <trkpt lat="49.52095" lon="3.65527">
        <ele>91.16</ele>
        <time>2018-02-19T15:20:37.000Z</time>
      </trkpt>
      <trkpt lat="49.52104" lon="3.65521">
        <ele>91.43</ele>
        <time>2018-02-19T15:20:47.000Z</time>
      </trkpt>
      <trkpt lat="49.52117" lon="3.65513">
        <ele>91.43</ele>
        <time>2018-02-19T15:20:57.000Z</time>
      </trkpt>
      <trkpt lat="49.52127" lon="3.65512">
        <ele>91.24</ele>
        <time>2018-02-19T15:21:07.000Z</time>
      </trkpt>
      <trkpt lat="49.52136" lon="3.65512">
        <ele>90.84</ele>
        <time>2018-02-19T15:21:17.000Z</time>
      </trkpt>
      <trkpt lat="49.52143" lon="3.65513">
        <ele>90.55</ele>
        <time>2018-02-19T15:21:27.000Z</time>
      </trkpt>
      <trkpt lat="49.52162" lon="3.65511">
        <ele>88.45</ele>
        <time>2018-02-19T15:21:37.000Z</time>
      </trkpt>
      <trkpt lat="49.52174" lon="3.65512">
        <ele>86.98</ele>
        <time>2018-02-19T15:21:47.000Z</time>
      </trkpt>
      <trkpt lat="49.52182" lon="3.65517">
        <ele>86.86</ele>
        <time>2018-02-19T15:21:57.000Z</time>
      </trkpt>
      <trkpt lat="49.52193" lon="3.65524">
        <ele>87.03</ele>
        <time>2018-02-19T15:22:07.000Z</time>
      </trkpt>
      <trkpt lat="49.52206" lon="3.65534">
        <ele>87.92</ele>
        <time>2018-02-19T15:22:17.000Z</time>
      </trkpt>
      <trkpt lat="49.52221" lon="3.65542">
        <ele>89.97</ele>
        <time>2018-02-19T15:22:27.000Z</time>
      </trkpt>
      <trkpt lat="49.52228" lon="3.65547">
        <ele>92.03</ele>
        <time>2018-02-19T15:22:37.000Z</time>
      </trkpt>
      <trkpt lat="49.52234" lon="3.65556">
        <ele>93.14</ele>
        <time>2018-02-19T15:22:47.000Z</time>
      </trkpt>
      <trkpt lat="49.52247" lon="3.65573">
        <ele>93.1</ele>
        <time>2018-02-19T15:22:57.000Z</time>
      </trkpt>
      <trkpt lat="49.52256" lon="3.65586">
        <ele>92.82</ele>
        <time>2018-02-19T15:23:07.000Z</time>
      </trkpt>
      <trkpt lat="49.52263" lon="3.65595">
        <ele>92.74</ele>
        <time>2018-02-19T15:23:17.000Z</time>
      </trkpt>
      <trkpt lat="49.5227" lon="3.65602">
        <ele>92.07</ele>
        <time>2018-02-19T15:23:27.000Z</time>
      </trkpt>
      <trkpt lat="49.5228" lon="3.6561">
        <ele>90.21</ele>
        <time>2018-02-19T15:23:37.000Z</time>
      </trkpt>
      <trkpt lat="49.5229" lon="3.65619">
        <ele>88.52</ele>
        <time>2018-02-19T15:23:47.000Z</time>
      </trkpt>
      <trkpt lat="49.523" lon="3.65629">
        <ele>88.49</ele>
        <time>2018-02-19T15:23:57.000Z</time>
      </trkpt>
      <trkpt lat="49.52308" lon="3.65639">
        <ele>88.76</ele>
        <time>2018-02-19T15:24:07.000Z</time>
      </trkpt>
      <trkpt lat="49.52316" lon="3.65653">
        <ele>88.93</ele>
        <time>2018-02-19T15:24:17.000Z</time>
      </trkpt>
      <trkpt lat="49.52323" lon="3.65665">
        <ele>89.28</ele>
        <time>2018-02-19T15:24:27.000Z</time>
      </trkpt>
      <trkpt lat="49.52333" lon="3.65678">
        <ele>89.3</ele>
        <time>2018-02-19T15:24:37.000Z</time>
      </trkpt>
      <trkpt lat="49.52343" lon="3.65692">
        <ele>89.27</ele>
        <time>2018-02-19T15:24:47.000Z</time>
      </trkpt>
      <trkpt lat="49.52351" lon="3.65701">
        <ele>89.23</ele>
        <time>2018-02-19T15:24:57.000Z</time>
      </trkpt>
      <trkpt lat="49.52361" lon="3.6571">
        <ele>88.78</ele>
        <time>2018-02-19T15:25:07.000Z</time>
      </trkpt>
      <trkpt lat="49.52371" lon="3.6572">
        <ele>87.7</ele>
        <time>2018-02-19T15:25:17.000Z</time>
      </trkpt>
      <trkpt lat="49.52378" lon="3.65732">
        <ele>86.58</ele>
        <time>2018-02-19T15:25:27.000Z</time>
      </trkpt>
      <trkpt lat="49.52386" lon="3.65741">
        <ele>85.83</ele>
        <time>2018-02-19T15:25:37.000Z</time>
      </trkpt>
      <trkpt lat="49.52391" lon="3.65754">
        <ele>85.33</ele>
        <time>2018-02-19T15:25:47.000Z</time>
      </trkpt>
      <trkpt lat="49.52397" lon="3.65767">
        <ele>84.98</ele>
        <time>2018-02-19T15:25:57.000Z</time>
      </trkpt>
      <trkpt lat="49.52403" lon="3.65781">
        <ele>84.74</ele>
        <time>2018-02-19T15:26:07.000Z</time>
      </trkpt>
      <trkpt lat="49.52409" lon="3.65792">
        <ele>84.42</ele>
        <time>2018-02-19T15:26:17.000Z</time>
      </trkpt>
      <trkpt lat="49.52415" lon="3.65805">
        <ele>84.02</ele>
        <time>2018-02-19T15:26:27.000Z</time>
      </trkpt>
      <trkpt lat="49.52423" lon="3.65821">
        <ele>83.97</ele>
        <time>2018-02-19T15:26:37.000Z</time>
      </trkpt>
      <trkpt lat="49.52428" lon="3.65836">
        <ele>83.91</ele>
        <time>2018-02-19T15:26:47.000Z</time>
      </trkpt>
      <trkpt lat="49.52434" lon="3.65851">
        <ele>83.77</ele>
        <time>2018-02-19T15:26:57.000Z</time>
      </trkpt>
      <trkpt lat="49.5244" lon="3.65869">
        <ele>83.61</ele>
        <time>2018-02-19T15:27:07.000Z</time>
      </trkpt>
      <trkpt lat="49.52442" lon="3.65887">
        <ele>83.58</ele>
        <time>2018-02-19T15:27:17.000Z</time>
      </trkpt>
      <trkpt lat="49.52448" lon="3.65903">
        <ele>83.01</ele>
        <time>2018-02-19T15:27:27.000Z</time>
      </trkpt>
      <trkpt lat="49.52456" lon="3.65909">
        <ele>81.16</ele>
        <time>2018-02-19T15:27:37.000Z</time>
      </trkpt>
      <trkpt lat="49.52469" lon="3.65906">
        <ele>79.33</ele>
        <time>2018-02-19T15:27:47.000Z</time>
      </trkpt>
      <trkpt lat="49.52471" lon="3.65906">
        <ele>79.15</ele>
        <time>2018-02-19T15:27:57.000Z</time>
      </trkpt>
      <trkpt lat="49.52472" lon="3.65904">
        <ele>79.22</ele>
        <time>2018-02-19T15:28:07.000Z</time>
      </trkpt>
      <trkpt lat="49.52472" lon="3.65906">
        <ele>79.51</ele>
        <time>2018-02-19T15:28:17.000Z</time>
      </trkpt>
      <trkpt lat="49.52472" lon="3.65905">
        <ele>80.88</ele>
        <time>2018-02-19T15:28:49.000Z</time>
      </trkpt>
      <trkpt lat="49.52472" lon="3.65904">
        <ele>83.23</ele>
        <time>2018-02-19T15:29:44.000Z</time>
      </trkpt>
      <trkpt lat="49.52473" lon="3.65903">
        <ele>83.87</ele>
        <time>2018-02-19T15:30:00.000Z</time>
      </trkpt>
      <trkpt lat="49.52479" lon="3.65904">
        <ele>84.62</ele>
        <time>2018-02-19T15:30:10.000Z</time>
      </trkpt>
      <trkpt lat="49.52489" lon="3.65889">
        <ele>86.03</ele>
        <time>2018-02-19T15:30:20.000Z</time>
      </trkpt>
      <trkpt lat="49.52496" lon="3.65888">
        <ele>87.13</ele>
        <time>2018-02-19T15:30:30.000Z</time>
      </trkpt>
      <trkpt lat="49.52504" lon="3.65892">
        <ele>87.72</ele>
        <time>2018-02-19T15:30:40.000Z</time>
      </trkpt>
      <trkpt lat="49.52516" lon="3.659">
        <ele>88.18</ele>
        <time>2018-02-19T15:30:50.000Z</time>
      </trkpt>
      <trkpt lat="49.52524" lon="3.65908">
        <ele>88.83</ele>
        <time>2018-02-19T15:31:00.000Z</time>
      </trkpt>
      <trkpt lat="49.52531" lon="3.65917">
        <ele>89.79</ele>
        <time>2018-02-19T15:31:10.000Z</time>
      </trkpt>
      <trkpt lat="49.52538" lon="3.65922">
        <ele>90.27</ele>
        <time>2018-02-19T15:31:20.000Z</time>
      </trkpt>
      <trkpt lat="49.52545" lon="3.65929">
        <ele>90.15</ele>
        <time>2018-02-19T15:31:30.000Z</time>
      </trkpt>
      <trkpt lat="49.52556" lon="3.65931">
        <ele>89.4</ele>
        <time>2018-02-19T15:31:40.000Z</time>
      </trkpt>
      <trkpt lat="49.52561" lon="3.65931">
        <ele>89.25</ele>
        <time>2018-02-19T15:31:50.000Z</time>
      </trkpt>
      <trkpt lat="49.52568" lon="3.6593">
        <ele>88.25</ele>
        <time>2018-02-19T15:32:00.000Z</time>
      </trkpt>
      <trkpt lat="49.52579" lon="3.65935">
        <ele>87.08</ele>
        <time>2018-02-19T15:32:10.000Z</time>
      </trkpt>
      <trkpt lat="49.52591" lon="3.65941">
        <ele>85.76</ele>
        <time>2018-02-19T15:32:20.000Z</time>
      </trkpt>
      <trkpt lat="49.52608" lon="3.65947">
        <ele>83.75</ele>
        <time>2018-02-19T15:32:30.000Z</time>
      </trkpt>
      <trkpt lat="49.5262" lon="3.65952">
        <ele>83</ele>
        <time>2018-02-19T15:32:40.000Z</time>
      </trkpt>
      <trkpt lat="49.52634" lon="3.65961">
        <ele>83.58</ele>
        <time>2018-02-19T15:32:50.000Z</time>
      </trkpt>
      <trkpt lat="49.52644" lon="3.65968">
        <ele>84.67</ele>
        <time>2018-02-19T15:33:00.000Z</time>
      </trkpt>
      <trkpt lat="49.52655" lon="3.65976">
        <ele>85.78</ele>
        <time>2018-02-19T15:33:10.000Z</time>
      </trkpt>
      <trkpt lat="49.52666" lon="3.65986">
        <ele>86.65</ele>
        <time>2018-02-19T15:33:20.000Z</time>
      </trkpt>
      <trkpt lat="49.52677" lon="3.65993">
        <ele>87.93</ele>
        <time>2018-02-19T15:33:30.000Z</time>
      </trkpt>
      <trkpt lat="49.52688" lon="3.65996">
        <ele>88.9</ele>
        <time>2018-02-19T15:33:40.000Z</time>
      </trkpt>
      <trkpt lat="49.52697" lon="3.66">
        <ele>89.38</ele>
        <time>2018-02-19T15:33:50.000Z</time>
      </trkpt>
      <trkpt lat="49.52706" lon="3.66007">
        <ele>89.63</ele>
        <time>2018-02-19T15:34:00.000Z</time>
      </trkpt>
      <trkpt lat="49.52715" lon="3.66015">
        <ele>89.77</ele>
        <time>2018-02-19T15:34:10.000Z</time>
      </trkpt>
      <trkpt lat="49.52723" lon="3.66026">
        <ele>89.64</ele>
        <time>2018-02-19T15:34:20.000Z</time>
      </trkpt>
      <trkpt lat="49.52731" lon="3.6604">
        <ele>89.22</ele>
        <time>2018-02-19T15:34:30.000Z</time>
      </trkpt>
      <trkpt lat="49.52738" lon="3.66052">
        <ele>88.75</ele>
        <time>2018-02-19T15:34:40.000Z</time>
      </trkpt>
      <trkpt lat="49.52745" lon="3.66063">
        <ele>88.66</ele>
        <time>2018-02-19T15:34:50.000Z</time>
      </trkpt>
      <trkpt lat="49.52749" lon="3.66076">
        <ele>89.33</ele>
        <time>2018-02-19T15:35:00.000Z</time>
      </trkpt>
      <trkpt lat="49.52758" lon="3.66081">
        <ele>88.68</ele>
        <time>2018-02-19T15:35:10.000Z</time>
      </trkpt>
      <trkpt lat="49.52774" lon="3.66074">
        <ele>90.07</ele>
        <time>2018-02-19T15:35:20.000Z</time>
      </trkpt>
      <trkpt lat="49.52782" lon="3.66067">
        <ele>90.98</ele>
        <time>2018-02-19T15:35:30.000Z</time>
      </trkpt>
      <trkpt lat="49.52794" lon="3.66061">
        <ele>91.37</ele>
        <time>2018-02-19T15:35:40.000Z</time>
      </trkpt>
      <trkpt lat="49.52806" lon="3.66056">
        <ele>91.77</ele>
        <time>2018-02-19T15:35:50.000Z</time>
      </trkpt>
      <trkpt lat="49.52817" lon="3.66051">
        <ele>92.6</ele>
        <time>2018-02-19T15:36:00.000Z</time>
      </trkpt>
      <trkpt lat="49.52825" lon="3.66045">
        <ele>92.63</ele>
        <time>2018-02-19T15:36:10.000Z</time>
      </trkpt>
      <trkpt lat="49.52833" lon="3.66039">
        <ele>91.9</ele>
        <time>2018-02-19T15:36:20.000Z</time>
      </trkpt>
      <trkpt lat="49.52843" lon="3.66033">
        <ele>91.37</ele>
        <time>2018-02-19T15:36:30.000Z</time>
      </trkpt>
      <trkpt lat="49.52852" lon="3.66025">
        <ele>90.87</ele>
        <time>2018-02-19T15:36:40.000Z</time>
      </trkpt>
      <trkpt lat="49.52862" lon="3.66016">
        <ele>90.33</ele>
        <time>2018-02-19T15:36:50.000Z</time>
      </trkpt>
      <trkpt lat="49.52876" lon="3.66014">
        <ele>90</ele>
        <time>2018-02-19T15:37:00.000Z</time>
      </trkpt>
      <trkpt lat="49.52885" lon="3.66009">
        <ele>90.58</ele>
        <time>2018-02-19T15:37:10.000Z</time>
      </trkpt>
      <trkpt lat="49.52895" lon="3.66002">
        <ele>91.15</ele>
        <time>2018-02-19T15:37:20.000Z</time>
      </trkpt>
      <trkpt lat="49.52907" lon="3.65993">
        <ele>91.45</ele>
        <time>2018-02-19T15:37:30.000Z</time>
      </trkpt>
      <trkpt lat="49.52918" lon="3.6599">
        <ele>91.85</ele>
        <time>2018-02-19T15:37:40.000Z</time>
      </trkpt>
      <trkpt lat="49.52931" lon="3.65983">
        <ele>92.96</ele>
        <time>2018-02-19T15:37:50.000Z</time>
      </trkpt>
      <trkpt lat="49.52935" lon="3.65976">
        <ele>93.58</ele>
        <time>2018-02-19T15:38:00.000Z</time>
      </trkpt>
      <trkpt lat="49.52941" lon="3.65969">
        <ele>93.23</ele>
        <time>2018-02-19T15:38:10.000Z</time>
      </trkpt>
      <trkpt lat="49.52952" lon="3.65965">
        <ele>92.31</ele>
        <time>2018-02-19T15:38:20.000Z</time>
      </trkpt>
      <trkpt lat="49.5296" lon="3.65958">
        <ele>90.81</ele>
        <time>2018-02-19T15:38:30.000Z</time>
      </trkpt>
      <trkpt lat="49.5297" lon="3.65955">
        <ele>89.74</ele>
        <time>2018-02-19T15:38:40.000Z</time>
      </trkpt>
      <trkpt lat="49.52983" lon="3.65948">
        <ele>88.9</ele>
        <time>2018-02-19T15:38:50.000Z</time>
      </trkpt>
      <trkpt lat="49.52993" lon="3.65941">
        <ele>88.23</ele>
        <time>2018-02-19T15:39:00.000Z</time>
      </trkpt>
      <trkpt lat="49.52999" lon="3.65935">
        <ele>87.67</ele>
        <time>2018-02-19T15:39:10.000Z</time>
      </trkpt>
      <trkpt lat="49.53011" lon="3.65926">
        <ele>87.43</ele>
        <time>2018-02-19T15:39:20.000Z</time>
      </trkpt>
      <trkpt lat="49.53006" lon="3.65926">
        <ele>87.7</ele>
        <time>2018-02-19T15:39:30.000Z</time>
      </trkpt>
      <trkpt lat="49.53004" lon="3.65926">
        <ele>87.63</ele>
        <time>2018-02-19T15:39:40.000Z</time>
      </trkpt>
      <trkpt lat="49.53004" lon="3.65926">
        <ele>87.62</ele>
        <time>2018-02-19T15:39:42.000Z</time>
      </trkpt>
    </trkseg>
  </trk>
</gpx>